Wetterdaten: Freitag, 25.07.2014
Datum Zeit Temp. Aussen +5cm Feuchte Auss Luftdruck Regen Sonnenschein Regendauer UV Solar Windben
25.07.2014 00:00 17,5 C 15,6 C 91 % 1015,0 hPa 0,0 l/m 0 min 0 min 0,0 UV-I 0 W/m 0,0 km/h (0 Bft)
25.07.2014 00:02 17,4 C 15,6 C 91 % 1015,1 hPa 0,0 l/m 0 min 0 min 0,0 UV-I 0 W/m 0,0 km/h (0 Bft)
25.07.2014 00:06 17,3 C 15,6 C 91 % 1015,0 hPa 0,0 l/m 0 min 0 min 0,0 UV-I 0 W/m 0,0 km/h (0 Bft)
25.07.2014 00:08 17,2 C 15,6 C 92 % 1015,0 hPa 0,0 l/m 0 min 0 min 0,0 UV-I 0 W/m 0,0 km/h (0 Bft)
25.07.2014 00:10 17,2 C 15,6 C 92 % 1014,9 hPa 0,0 l/m 0 min 0 min 0,0 UV-I 0 W/m 0,0 km/h (0 Bft)
25.07.2014 00:12 17,2 C 15,6 C 92 % 1014,9 hPa 0,0 l/m 0 min 0 min 0,0 UV-I 0 W/m 0,0 km/h (0 Bft)
25.07.2014 00:14 17,2 C 15,6 C 92 % 1014,9 hPa 0,0 l/m 0 min 0 min 0,0 UV-I 0 W/m 0,0 km/h (0 Bft)
25.07.2014 00:16 17,1 C 15,6 C 92 % 1015,0 hPa 0,0 l/m 0 min 0 min 0,0 UV-I 0 W/m 0,0 km/h (0 Bft)
25.07.2014 00:18 17,1 C 15,6 C 92 % 1015,0 hPa 0,0 l/m 0 min 0 min 0,0 UV-I 0 W/m 2,1 km/h (1 Bft)
25.07.2014 00:20 17,0 C 15,6 C 93 % 1015,0 hPa 0,0 l/m 0 min 0 min 0,0 UV-I 0 W/m 2,1 km/h (1 Bft)
25.07.2014 00:22 16,9 C 15,6 C 93 % 1015,0 hPa 0,0 l/m 0 min 0 min 0,0 UV-I 0 W/m 0,0 km/h (0 Bft)
25.07.2014 00:24 16,9 C 15,6 C 93 % 1015,1 hPa 0,0 l/m 0 min 0 min 0,0 UV-I 0 W/m 0,0 km/h (0 Bft)
25.07.2014 00:26 16,9 C 15,6 C 93 % 1015,0 hPa 0,0 l/m 0 min 0 min 0,0 UV-I 0 W/m 0,0 km/h (0 Bft)
25.07.2014 00:28 16,8 C 15,6 C 93 % 1015,0 hPa 0,0 l/m 0 min 0 min 0,0 UV-I 0 W/m 0,0 km/h (0 Bft)
25.07.2014 00:30 16,8 C 15,6 C 93 % 1015,1 hPa 0,0 l/m 0 min 0 min 0,0 UV-I 0 W/m 0,0 km/h (0 Bft)
25.07.2014 00:32 16,8 C 15,6 C 93 % 1015,1 hPa 0,0 l/m 0 min 0 min 0,0 UV-I 0 W/m 0,0 km/h (0 Bft)
25.07.2014 00:34 16,7 C 15,6 C 93 % 1015,1 hPa 0,0 l/m 0 min 0 min 0,0 UV-I 0 W/m 0,0 km/h (0 Bft)
25.07.2014 00:36 16,7 C 15,6 C 93 % 1015,1 hPa 0,0 l/m 0 min 0 min 0,0 UV-I 0 W/m 0,0 km/h (0 Bft)
25.07.2014 00:38 16,7 C 15,0 C 93 % 1015,1 hPa 0,0 l/m 0 min 0 min 0,0 UV-I 0 W/m 0,0 km/h (0 Bft)
25.07.2014 00:40 16,7 C 15,0 C 93 % 1015,1 hPa 0,0 l/m 0 min 0 min 0,0 UV-I 0 W/m 0,0 km/h (0 Bft)
25.07.2014 00:42 16,7 C 15,0 C 93 % 1015,1 hPa 0,0 l/m 0 min 0 min 0,0 UV-I 0 W/m 0,0 km/h (0 Bft)
25.07.2014 00:44 16,7 C 15,0 C 93 % 1015,1 hPa 0,0 l/m 0 min 0 min 0,0 UV-I 0 W/m 0,0 km/h (0 Bft)
25.07.2014 00:46 16,7 C 15,0 C 93 % 1015,1 hPa 0,0 l/m 0 min 0 min 0,0 UV-I 0 W/m 0,0 km/h (0 Bft)
25.07.2014 00:48 16,7 C 15,0 C 93 % 1015,2 hPa 0,0 l/m 0 min 0 min 0,0 UV-I 0 W/m 0,0 km/h (0 Bft)
25.07.2014 00:50 16,7 C 15,0 C 93 % 1015,2 hPa 0,0 l/m 0 min 0 min 0,0 UV-I 0 W/m 0,0 km/h (0 Bft)
25.07.2014 00:52 16,7 C 15,0 C 93 % 1015,2 hPa 0,0 l/m 0 min 0 min 0,0 UV-I 0 W/m 0,0 km/h (0 Bft)
25.07.2014 00:54 16,7 C 15,0 C 93 % 1015,2 hPa 0,0 l/m 0 min 0 min 0,0 UV-I 0 W/m 0,0 km/h (0 Bft)
25.07.2014 00:56 16,7 C 15,0 C 93 % 1015,2 hPa 0,0 l/m 0 min 0 min 0,0 UV-I 0 W/m 0,0 km/h (0 Bft)
25.07.2014 00:58 16,7 C 15,0 C 93 % 1015,2 hPa 0,0 l/m 0 min 0 min 0,0 UV-I 0 W/m 0,0 km/h (0 Bft)
25.07.2014 01:00 16,7 C 15,0 C 93 % 1015,2 hPa 0,0 l/m 0 min 0 min 0,0 UV-I 0 W/m 0,0 km/h (0 Bft)
25.07.2014 01:02 16,7 C 15,0 C 93 % 1015,2 hPa 0,0 l/m 0 min 0 min 0,0 UV-I 0 W/m 0,0 km/h (0 Bft)
25.07.2014 01:04 16,6 C 15,0 C 93 % 1015,2 hPa 0,0 l/m 0 min 0 min 0,0 UV-I 0 W/m 0,0 km/h (0 Bft)
25.07.2014 01:06 16,7 C 15,0 C 94 % 1015,2 hPa 0,0 l/m 0 min 0 min 0,0 UV-I 0 W/m 0,0 km/h (0 Bft)
25.07.2014 01:08 16,7 C 15,0 C 94 % 1015,2 hPa 0,0 l/m 0 min 0 min 0,0 UV-I 0 W/m 0,0 km/h (0 Bft)
25.07.2014 01:10 16,7 C 15,0 C 94 % 1015,3 hPa 0,0 l/m 0 min 0 min 0,0 UV-I 0 W/m 0,0 km/h (0 Bft)
25.07.2014 01:12 16,7 C 15,0 C 94 % 1015,2 hPa 0,0 l/m 0 min 0 min 0,0 UV-I 0 W/m 0,0 km/h (0 Bft)
25.07.2014 01:14 16,7 C 15,0 C 93 % 1015,1 hPa 0,0 l/m 0 min 0 min 0,0 UV-I 0 W/m 2,1 km/h (1 Bft)
25.07.2014 01:16 16,7 C 15,0 C 93 % 1015,2 hPa 0,0 l/m 0 min 0 min 0,0 UV-I 0 W/m 0,0 km/h (0 Bft)
25.07.2014 01:18 16,7 C 15,0 C 93 % 1015,1 hPa 0,0 l/m 0 min 0 min 0,0 UV-I 0 W/m 0,0 km/h (0 Bft)
25.07.2014 01:20 16,7 C 15,0 C 93 % 1015,1 hPa 0,0 l/m 0 min 0 min 0,0 UV-I 0 W/m 0,0 km/h (0 Bft)
25.07.2014 01:22 16,8 C 15,0 C 93 % 1015,1 hPa 0,0 l/m 0 min 0 min 0,0 UV-I 0 W/m 0,0 km/h (0 Bft)
25.07.2014 01:24 16,8 C 15,0 C 93 % 1015,1 hPa 0,0 l/m 0 min 0 min 0,0 UV-I 0 W/m 0,0 km/h (0 Bft)
25.07.2014 01:26 16,8 C 15,0 C 93 % 1015,2 hPa 0,0 l/m 0 min 0 min 0,0 UV-I 0 W/m 0,0 km/h (0 Bft)
25.07.2014 01:28 16,8 C 15,0 C 93 % 1015,2 hPa 0,0 l/m 0 min 0 min 0,0 UV-I 0 W/m 0,0 km/h (0 Bft)
25.07.2014 01:30 16,8 C 15,0 C 92 % 1015,2 hPa 0,0 l/m 0 min 0 min 0,0 UV-I 0 W/m 0,0 km/h (0 Bft)
25.07.2014 01:32 16,8 C 15,0 C 92 % 1015,2 hPa 0,0 l/m 0 min 0 min 0,0 UV-I 0 W/m 6,3 km/h (2 Bft)
25.07.2014 01:34 16,8 C 15,0 C 92 % 1015,1 hPa 0,0 l/m 0 min 0 min 0,0 UV-I 0 W/m 2,1 km/h (1 Bft)
25.07.2014 01:36 16,8 C 15,0 C 92 % 1015,1 hPa 0,0 l/m 0 min 0 min 0,0 UV-I 0 W/m 4,2 km/h (1 Bft)
25.07.2014 01:38 16,9 C 15,0 C 92 % 1015,1 hPa 0,0 l/m 0 min 0 min 0,0 UV-I 0 W/m 6,3 km/h (2 Bft)
25.07.2014 01:40 16,9 C 15,0 C 92 % 1015,1 hPa 0,0 l/m 0 min 0 min 0,0 UV-I 0 W/m 4,2 km/h (1 Bft)
25.07.2014 01:42 17,0 C 15,0 C 92 % 1015,1 hPa 0,0 l/m 0 min 0 min 0,0 UV-I 0 W/m 6,3 km/h (2 Bft)
25.07.2014 01:44 17,1 C 15,0 C 91 % 1015,1 hPa 0,0 l/m 0 min 0 min 0,0 UV-I 0 W/m 0,0 km/h (0 Bft)
25.07.2014 01:46 17,1 C 15,0 C 91 % 1015,1 hPa 0,0 l/m 0 min 0 min 0,0 UV-I 0 W/m 0,0 km/h (0 Bft)
25.07.2014 01:48 17,1 C 15,0 C 90 % 1015,1 hPa 0,0 l/m 0 min 0 min 0,0 UV-I 0 W/m 0,0 km/h (0 Bft)
25.07.2014 01:50 17,2 C 15,0 C 90 % 1015,1 hPa 0,0 l/m 0 min 0 min 0,0 UV-I 0 W/m 0,0 km/h (0 Bft)
25.07.2014 01:52 17,2 C 15,0 C 90 % 1015,1 hPa 0,0 l/m 0 min 0 min 0,0 UV-I 0 W/m 2,1 km/h (1 Bft)
25.07.2014 01:54 17,1 C 15,0 C 90 % 1015,0 hPa 0,0 l/m 0 min 0 min 0,0 UV-I 0 W/m 0,0 km/h (0 Bft)
25.07.2014 01:56 17,1 C 15,0 C 90 % 1015,1 hPa 0,0 l/m 0 min 0 min 0,0 UV-I 0 W/m 0,0 km/h (0 Bft)
25.07.2014 01:58 17,1 C 15,0 C 90 % 1015,1 hPa 0,0 l/m 0 min 0 min 0,0 UV-I 0 W/m 0,0 km/h (0 Bft)
25.07.2014 02:00 17,1 C 14,4 C 90 % 1015,0 hPa 0,0 l/m 0 min 0 min 0,0 UV-I 0 W/m 0,0 km/h (0 Bft)
25.07.2014 02:02 17,0 C 15,0 C 90 % 1015,1 hPa 0,0 l/m 0 min 0 min 0,0 UV-I 0 W/m 2,1 km/h (1 Bft)
25.07.2014 02:04 16,9 C 14,4 C 90 % 1015,1 hPa 0,0 l/m 0 min 0 min 0,0 UV-I 0 W/m 0,0 km/h (0 Bft)
25.07.2014 02:06 16,9 C 14,4 C 90 % 1015,0 hPa 0,0 l/m 0 min 0 min 0,0 UV-I 0 W/m 0,0 km/h (0 Bft)
25.07.2014 02:08 16,9 C 14,4 C 90 % 1015,0 hPa 0,0 l/m 0 min 0 min 0,0 UV-I 0 W/m 0,0 km/h (0 Bft)
25.07.2014 02:10 16,8 C 14,4 C 90 % 1015,0 hPa 0,0 l/m 0 min 0 min 0,0 UV-I 0 W/m 0,0 km/h (0 Bft)
25.07.2014 02:12 16,8 C 14,4 C 90 % 1015,0 hPa 0,0 l/m 0 min 0 min 0,0 UV-I 0 W/m 0,0 km/h (0 Bft)
25.07.2014 02:14 16,8 C 14,4 C 90 % 1015,0 hPa 0,0 l/m 0 min 0 min 0,0 UV-I 0 W/m 0,0 km/h (0 Bft)
25.07.2014 02:16 16,8 C 14,4 C 90 % 1015,0 hPa 0,0 l/m 0 min 0 min 0,0 UV-I 0 W/m 0,0 km/h (0 Bft)
25.07.2014 02:18 16,7 C 14,4 C 91 % 1015,0 hPa 0,0 l/m 0 min 0 min 0,0 UV-I 0 W/m 0,0 km/h (0 Bft)
25.07.2014 02:20 16,7 C 14,4 C 91 % 1015,0 hPa 0,0 l/m 0 min 0 min 0,0 UV-I 0 W/m 0,0 km/h (0 Bft)
25.07.2014 02:22 16,6 C 14,4 C 91 % 1015,0 hPa 0,0 l/m 0 min 0 min 0,0 UV-I 0 W/m 0,0 km/h (0 Bft)
25.07.2014 02:24 16,6 C 14,4 C 91 % 1014,9 hPa 0,0 l/m 0 min 0 min 0,0 UV-I 0 W/m 0,0 km/h (0 Bft)
25.07.2014 02:26 16,7 C 14,4 C 91 % 1015,0 hPa 0,0 l/m 0 min 0 min 0,0 UV-I 0 W/m 0,0 km/h (0 Bft)
25.07.2014 02:28 16,7 C 14,4 C 91 % 1015,0 hPa 0,0 l/m 0 min 0 min 0,0 UV-I 0 W/m 2,1 km/h (1 Bft)
25.07.2014 02:30 16,7 C 14,4 C 91 % 1015,0 hPa 0,0 l/m 0 min 0 min 0,0 UV-I 0 W/m 0,0 km/h (0 Bft)
25.07.2014 02:32 16,7 C 14,4 C 91 % 1015,0 hPa 0,0 l/m 0 min 0 min 0,0 UV-I 0 W/m 0,0 km/h (0 Bft)
25.07.2014 02:34 16,6 C 14,4 C 91 % 1015,0 hPa 0,0 l/m 0 min 0 min 0,0 UV-I 0 W/m 0,0 km/h (0 Bft)
25.07.2014 02:36 16,6 C 14,4 C 91 % 1015,0 hPa 0,0 l/m 0 min 0 min 0,0 UV-I 0 W/m 0,0 km/h (0 Bft)
25.07.2014 02:38 16,6 C 14,4 C 91 % 1015,0 hPa 0,0 l/m 0 min 0 min 0,0 UV-I 0 W/m 0,0 km/h (0 Bft)
25.07.2014 02:40 16,5 C 14,4 C 91 % 1014,9 hPa 0,0 l/m 0 min 0 min 0,0 UV-I 0 W/m 0,0 km/h (0 Bft)
25.07.2014 02:42 16,4 C 14,4 C 91 % 1014,9 hPa 0,0 l/m 0 min 0 min 0,0 UV-I 0 W/m 0,0 km/h (0 Bft)
25.07.2014 02:44 16,4 C 14,4 C 91 % 1014,9 hPa 0,0 l/m 0 min 0 min 0,0 UV-I 0 W/m 0,0 km/h (0 Bft)
25.07.2014 02:46 16,3 C 14,4 C 91 % 1014,8 hPa 0,0 l/m 0 min 0 min 0,0 UV-I 0 W/m 0,0 km/h (0 Bft)
25.07.2014 02:48 16,3 C 14,4 C 92 % 1014,9 hPa 0,0 l/m 0 min 0 min 0,0 UV-I 0 W/m 0,0 km/h (0 Bft)
25.07.2014 02:50 16,2 C 14,4 C 92 % 1014,9 hPa 0,0 l/m 0 min 0 min 0,0 UV-I 0 W/m 0,0 km/h (0 Bft)
25.07.2014 02:52 16,2 C 14,4 C 92 % 1014,9 hPa 0,0 l/m 0 min 0 min 0,0 UV-I 0 W/m 0,0 km/h (0 Bft)
25.07.2014 02:54 16,2 C 14,4 C 92 % 1014,9 hPa 0,0 l/m 0 min 0 min 0,0 UV-I 0 W/m 0,0 km/h (0 Bft)
25.07.2014 02:56 16,1 C 14,4 C 92 % 1014,8 hPa 0,0 l/m 0 min 0 min 0,0 UV-I 0 W/m 0,0 km/h (0 Bft)
25.07.2014 02:58 16,1 C 14,4 C 92 % 1014,9 hPa 0,0 l/m 0 min 0 min 0,0 UV-I 0 W/m 0,0 km/h (0 Bft)
25.07.2014 03:00 16,1 C 14,4 C 92 % 1014,8 hPa 0,0 l/m 0 min 0 min 0,0 UV-I 0 W/m 0,0 km/h (0 Bft)
25.07.2014 03:02 16,0 C 14,4 C 92 % 1014,8 hPa 0,0 l/m 0 min 0 min 0,0 UV-I 0 W/m 0,0 km/h (0 Bft)
25.07.2014 03:04 16,0 C 14,4 C 93 % 1014,7 hPa 0,0 l/m 0 min 0 min 0,0 UV-I 0 W/m 0,0 km/h (0 Bft)
25.07.2014 03:06 15,9 C 14,4 C 93 % 1014,7 hPa 0,0 l/m 0 min 0 min 0,0 UV-I 0 W/m 0,0 km/h (0 Bft)
25.07.2014 03:08 16,0 C 14,4 C 93 % 1014,6 hPa 0,0 l/m 0 min 0 min 0,0 UV-I 0 W/m 0,0 km/h (0 Bft)
25.07.2014 03:10 16,0 C 14,4 C 93 % 1014,6 hPa 0,0 l/m 0 min 0 min 0,0 UV-I 0 W/m 0,0 km/h (0 Bft)
25.07.2014 03:12 16,0 C 14,4 C 93 % 1014,6 hPa 0,0 l/m 0 min 0 min 0,0 UV-I 0 W/m 0,0 km/h (0 Bft)
25.07.2014 03:14 16,0 C 14,4 C 93 % 1014,6 hPa 0,0 l/m 0 min 0 min 0,0 UV-I 0 W/m 0,0 km/h (0 Bft)
25.07.2014 03:16 16,0 C 14,4 C 93 % 1014,5 hPa 0,0 l/m 0 min 0 min 0,0 UV-I 0 W/m 0,0 km/h (0 Bft)
25.07.2014 03:18 16,0 C 14,4 C 93 % 1014,5 hPa 0,0 l/m 0 min 0 min 0,0 UV-I 0 W/m 0,0 km/h (0 Bft)
25.07.2014 03:20 16,0 C 14,4 C 93 % 1014,5 hPa 0,0 l/m 0 min 0 min 0,0 UV-I 0 W/m 0,0 km/h (0 Bft)
25.07.2014 03:22 16,0 C 14,4 C 93 % 1014,5 hPa 0,0 l/m 0 min 0 min 0,0 UV-I 0 W/m 0,0 km/h (0 Bft)
25.07.2014 03:24 16,0 C 14,4 C 93 % 1014,5 hPa 0,0 l/m 0 min 0 min 0,0 UV-I 0 W/m 0,0 km/h (0 Bft)
25.07.2014 03:26 16,1 C 14,4 C 93 % 1014,5 hPa 0,0 l/m 0 min 0 min 0,0 UV-I 0 W/m 0,0 km/h (0 Bft)
25.07.2014 03:28 16,1 C 14,4 C 93 % 1014,5 hPa 0,0 l/m 0 min 0 min 0,0 UV-I 0 W/m 0,0 km/h (0 Bft)
25.07.2014 03:30 16,1 C 14,4 C 93 % 1014,5 hPa 0,0 l/m 0 min 0 min 0,0 UV-I 0 W/m 0,0 km/h (0 Bft)
25.07.2014 03:32 16,1 C 14,4 C 93 % 1014,5 hPa 0,0 l/m 0 min 0 min 0,0 UV-I 0 W/m 0,0 km/h (0 Bft)
25.07.2014 03:34 16,1 C 14,4 C 93 % 1014,4 hPa 0,0 l/m 0 min 0 min 0,0 UV-I 0 W/m 0,0 km/h (0 Bft)
25.07.2014 03:36 16,1 C 14,4 C 93 % 1014,5 hPa 0,0 l/m 0 min 0 min 0,0 UV-I 0 W/m 0,0 km/h (0 Bft)
25.07.2014 03:38 16,1 C 14,4 C 93 % 1014,4 hPa 0,0 l/m 0 min 0 min 0,0 UV-I 0 W/m 0,0 km/h (0 Bft)
25.07.2014 03:40 16,1 C 14,4 C 93 % 1014,4 hPa 0,0 l/m 0 min 0 min 0,0 UV-I 0 W/m 0,0 km/h (0 Bft)
25.07.2014 03:42 16,1 C 14,4 C 93 % 1014,4 hPa 0,0 l/m 0 min 0 min 0,0 UV-I 0 W/m 0,0 km/h (0 Bft)
25.07.2014 03:44 16,0 C 14,4 C 93 % 1014,4 hPa 0,0 l/m 0 min 0 min 0,0 UV-I 0 W/m 0,0 km/h (0 Bft)
25.07.2014 03:46 16,0 C 14,4 C 93 % 1014,4 hPa 0,0 l/m 0 min 0 min 0,0 UV-I 0 W/m 2,1 km/h (1 Bft)
25.07.2014 03:48 16,1 C 14,4 C 93 % 1014,5 hPa 0,0 l/m 0 min 0 min 0,0 UV-I 0 W/m 8,4 km/h (2 Bft)
25.07.2014 03:50 16,1 C 14,4 C 93 % 1014,4 hPa 0,0 l/m 0 min 0 min 0,0 UV-I 0 W/m 6,3 km/h (2 Bft)
25.07.2014 03:52 16,2 C 14,4 C 93 % 1014,4 hPa 0,0 l/m 0 min 0 min 0,0 UV-I 0 W/m 2,1 km/h (1 Bft)
25.07.2014 03:54 16,2 C 14,4 C 93 % 1014,5 hPa 0,0 l/m 0 min 0 min 0,0 UV-I 0 W/m 6,3 km/h (2 Bft)
25.07.2014 03:56 16,3 C 14,4 C 92 % 1014,5 hPa 0,0 l/m 0 min 0 min 0,0 UV-I 0 W/m 6,3 km/h (2 Bft)
25.07.2014 03:58 16,3 C 14,4 C 92 % 1014,5 hPa 0,0 l/m 0 min 0 min 0,0 UV-I 0 W/m 4,2 km/h (1 Bft)
25.07.2014 04:00 16,3 C 14,4 C 91 % 1014,4 hPa 0,0 l/m 0 min 0 min 0,0 UV-I 0 W/m 2,1 km/h (1 Bft)
25.07.2014 04:02 16,3 C 14,4 C 91 % 1014,4 hPa 0,0 l/m 0 min 0 min 0,0 UV-I 0 W/m 0,0 km/h (0 Bft)
25.07.2014 04:04 16,2 C 14,4 C 91 % 1014,3 hPa 0,0 l/m 0 min 0 min 0,0 UV-I 0 W/m 0,0 km/h (0 Bft)
25.07.2014 04:06 16,2 C 14,4 C 91 % 1014,4 hPa 0,0 l/m 0 min 0 min 0,0 UV-I 0 W/m 0,0 km/h (0 Bft)
25.07.2014 04:08 16,2 C 14,4 C 91 % 1014,3 hPa 0,0 l/m 0 min 0 min 0,0 UV-I 0 W/m 0,0 km/h (0 Bft)
25.07.2014 04:10 16,1 C 14,4 C 91 % 1014,3 hPa 0,0 l/m 0 min 0 min 0,0 UV-I 0 W/m 2,1 km/h (1 Bft)
25.07.2014 04:12 16,1 C 13,9 C 91 % 1014,3 hPa 0,0 l/m 0 min 0 min 0,0 UV-I 0 W/m 0,0 km/h (0 Bft)
25.07.2014 04:14 16,1 C 13,9 C 91 % 1014,3 hPa 0,0 l/m 0 min 0 min 0,0 UV-I 0 W/m 0,0 km/h (0 Bft)
25.07.2014 04:16 16,1 C 13,9 C 91 % 1014,2 hPa 0,0 l/m 0 min 0 min 0,0 UV-I 0 W/m 0,0 km/h (0 Bft)
25.07.2014 04:18 16,1 C 13,9 C 91 % 1014,3 hPa 0,0 l/m 0 min 0 min 0,0 UV-I 0 W/m 0,0 km/h (0 Bft)
25.07.2014 04:20 16,1 C 13,9 C 91 % 1014,3 hPa 0,0 l/m 0 min 0 min 0,0 UV-I 0 W/m 0,0 km/h (0 Bft)
25.07.2014 04:22 16,1 C 13,9 C 91 % 1014,3 hPa 0,0 l/m 0 min 0 min 0,0 UV-I 0 W/m 0,0 km/h (0 Bft)
25.07.2014 04:24 16,1 C 13,9 C 91 % 1014,4 hPa 0,0 l/m 0 min 0 min 0,0 UV-I 0 W/m 0,0 km/h (0 Bft)
25.07.2014 04:26 16,0 C 13,9 C 91 % 1014,4 hPa 0,0 l/m 0 min 0 min 0,0 UV-I 0 W/m 0,0 km/h (0 Bft)
25.07.2014 04:28 15,9 C 13,9 C 91 % 1014,4 hPa 0,0 l/m 0 min 0 min 0,0 UV-I 0 W/m 0,0 km/h (0 Bft)
25.07.2014 04:30 15,9 C 13,9 C 91 % 1014,3 hPa 0,0 l/m 0 min 0 min 0,0 UV-I 0 W/m 0,0 km/h (0 Bft)
25.07.2014 04:32 15,9 C 13,9 C 91 % 1014,3 hPa 0,0 l/m 0 min 0 min 0,0 UV-I 0 W/m 0,0 km/h (0 Bft)
25.07.2014 04:34 15,9 C 13,9 C 91 % 1014,3 hPa 0,0 l/m 0 min 0 min 0,0 UV-I 0 W/m 2,1 km/h (1 Bft)
25.07.2014 04:36 15,9 C 14,4 C 91 % 1014,4 hPa 0,0 l/m 0 min 0 min 0,0 UV-I 0 W/m 6,3 km/h (2 Bft)
25.07.2014 04:38 15,9 C 14,4 C 91 % 1014,4 hPa 0,0 l/m 0 min 0 min 0,0 UV-I 0 W/m 8,4 km/h (2 Bft)
25.07.2014 04:40 15,9 C 14,4 C 91 % 1014,4 hPa 0,0 l/m 0 min 0 min 0,0 UV-I 0 W/m 6,3 km/h (2 Bft)
25.07.2014 04:42 16,0 C 14,4 C 91 % 1014,4 hPa 0,0 l/m 0 min 0 min 0,0 UV-I 0 W/m 6,3 km/h (2 Bft)
25.07.2014 04:44 16,1 C 14,4 C 91 % 1014,4 hPa 0,0 l/m 0 min 0 min 0,0 UV-I 0 W/m 8,4 km/h (2 Bft)
25.07.2014 04:46 16,1 C 14,4 C 90 % 1014,4 hPa 0,0 l/m 0 min 0 min 0,0 UV-I 0 W/m 6,3 km/h (2 Bft)
25.07.2014 04:48 16,1 C 14,4 C 90 % 1014,5 hPa 0,0 l/m 0 min 0 min 0,0 UV-I 0 W/m 6,3 km/h (2 Bft)
25.07.2014 04:50 16,2 C 15,0 C 90 % 1014,5 hPa 0,0 l/m 0 min 0 min 0,0 UV-I 0 W/m 6,3 km/h (2 Bft)
25.07.2014 04:52 16,2 C 15,0 C 92 % 1014,5 hPa 0,0 l/m 0 min 0 min 0,0 UV-I 0 W/m 4,2 km/h (1 Bft)
25.07.2014 04:54 16,2 C 15,0 C 90 % 1014,5 hPa 0,0 l/m 0 min 0 min 0,0 UV-I 0 W/m 0,0 km/h (0 Bft)
25.07.2014 04:56 16,1 C 14,4 C 89 % 1014,5 hPa 0,0 l/m 0 min 0 min 0,0 UV-I 0 W/m 4,2 km/h (1 Bft)
25.07.2014 04:58 16,1 C 14,4 C 90 % 1014,5 hPa 0,0 l/m 0 min 0 min 0,0 UV-I 0 W/m 6,3 km/h (2 Bft)
25.07.2014 05:00 16,2 C 15,0 C 90 % 1014,5 hPa 0,0 l/m 0 min 0 min 0,0 UV-I 0 W/m 8,4 km/h (2 Bft)
25.07.2014 05:02 16,2 C 15,0 C 90 % 1014,5 hPa 0,0 l/m 0 min 0 min 0,0 UV-I 0 W/m 6,3 km/h (2 Bft)
25.07.2014 05:04 16,2 C 15,0 C 89 % 1014,5 hPa 0,0 l/m 0 min 0 min 0,0 UV-I 0 W/m 2,1 km/h (1 Bft)
25.07.2014 05:06 16,2 C 14,4 C 89 % 1014,5 hPa 0,0 l/m 0 min 0 min 0,0 UV-I 0 W/m 0,0 km/h (0 Bft)
25.07.2014 05:08 16,2 C 15,0 C 89 % 1014,5 hPa 0,0 l/m 0 min 0 min 0,0 UV-I 0 W/m 2,1 km/h (1 Bft)
25.07.2014 05:10 16,2 C 15,0 C 89 % 1014,5 hPa 0,0 l/m 0 min 0 min 0,0 UV-I 0 W/m 6,3 km/h (2 Bft)
25.07.2014 05:12 16,2 C 15,0 C 89 % 1014,5 hPa 0,0 l/m 0 min 0 min 0,0 UV-I 0 W/m 4,2 km/h (1 Bft)
25.07.2014 05:14 16,2 C 15,0 C 89 % 1014,5 hPa 0,0 l/m 0 min 0 min 0,0 UV-I 0 W/m 6,3 km/h (2 Bft)
25.07.2014 05:16 16,2 C 15,0 C 89 % 1014,5 hPa 0,0 l/m 0 min 0 min 0,0 UV-I 0 W/m 0,0 km/h (0 Bft)
25.07.2014 05:18 16,2 C 15,0 C 89 % 1014,5 hPa 0,0 l/m 0 min 0 min 0,0 UV-I 0 W/m 0,0 km/h (0 Bft)
25.07.2014 05:20 16,2 C 15,0 C 89 % 1014,5 hPa 0,0 l/m 0 min 0 min 0,0 UV-I 0 W/m 2,1 km/h (1 Bft)
25.07.2014 05:22 16,3 C 15,0 C 89 % 1014,5 hPa 0,0 l/m 0 min 0 min 0,0 UV-I 0 W/m 6,3 km/h (2 Bft)
25.07.2014 05:24 16,3 C 15,0 C 89 % 1014,5 hPa 0,0 l/m 0 min 0 min 0,0 UV-I 0 W/m 8,4 km/h (2 Bft)
25.07.2014 05:26 16,3 C 15,0 C 89 % 1014,4 hPa 0,0 l/m 0 min 0 min 0,0 UV-I 0 W/m 6,3 km/h (2 Bft)
25.07.2014 05:28 16,4 C 15,0 C 89 % 1014,4 hPa 0,0 l/m 0 min 0 min 0,0 UV-I 0 W/m 2,1 km/h (1 Bft)
25.07.2014 05:30 16,4 C 15,0 C 88 % 1014,5 hPa 0,0 l/m 0 min 0 min 0,0 UV-I 0 W/m 2,1 km/h (1 Bft)
25.07.2014 05:32 16,4 C 15,0 C 88 % 1014,5 hPa 0,0 l/m 0 min 0 min 0,0 UV-I 0 W/m 2,1 km/h (1 Bft)
25.07.2014 05:34 16,4 C 15,0 C 89 % 1014,4 hPa 0,0 l/m 0 min 0 min 0,0 UV-I 0 W/m 8,4 km/h (2 Bft)
25.07.2014 05:36 16,4 C 15,0 C 89 % 1014,5 hPa 0,0 l/m 0 min 0 min 0,0 UV-I 0 W/m 0,0 km/h (0 Bft)
25.07.2014 05:38 16,4 C 15,0 C 89 % 1014,5 hPa 0,0 l/m 0 min 0 min 0,0 UV-I 0 W/m 0,0 km/h (0 Bft)
25.07.2014 05:40 16,4 C 15,0 C 89 % 1014,5 hPa 0,0 l/m 0 min 0 min 0,0 UV-I 0 W/m 0,0 km/h (0 Bft)
25.07.2014 05:42 16,4 C 15,0 C 89 % 1014,5 hPa 0,0 l/m 0 min 0 min 0,0 UV-I 0 W/m 6,3 km/h (2 Bft)
25.07.2014 05:44 16,4 C 15,0 C 89 % 1014,5 hPa 0,0 l/m 0 min 0 min 0,0 UV-I 0 W/m 4,2 km/h (1 Bft)
25.07.2014 05:46 16,4 C 15,0 C 89 % 1014,5 hPa 0,0 l/m 0 min 0 min 0,0 UV-I 0 W/m 8,4 km/h (2 Bft)
25.07.2014 05:48 16,4 C 15,0 C 89 % 1014,5 hPa 0,0 l/m 0 min 0 min 0,0 UV-I 0 W/m 8,4 km/h (2 Bft)
25.07.2014 05:50 16,4 C 15,0 C 89 % 1014,5 hPa 0,0 l/m 0 min 0 min 0,0 UV-I 0 W/m 0,0 km/h (0 Bft)
25.07.2014 05:52 16,4 C 15,0 C 89 % 1014,5 hPa 0,0 l/m 0 min 0 min 0,0 UV-I 0 W/m 0,0 km/h (0 Bft)
25.07.2014 05:54 16,4 C 15,0 C 89 % 1014,5 hPa 0,0 l/m 0 min 0 min 0,0 UV-I 0 W/m 0,0 km/h (0 Bft)
25.07.2014 05:56 16,4 C 15,0 C 89 % 1014,5 hPa 0,0 l/m 0 min 0 min 0,0 UV-I 0 W/m 0,0 km/h (0 Bft)
25.07.2014 05:58 16,4 C 15,0 C 89 % 1014,5 hPa 0,0 l/m 0 min 0 min 0,0 UV-I 0 W/m 0,0 km/h (0 Bft)
25.07.2014 06:00 16,3 C 15,0 C 89 % 1014,5 hPa 0,0 l/m 0 min 0 min 0,0 UV-I 2 W/m 0,0 km/h (0 Bft)
25.07.2014 06:02 16,3 C 15,0 C 90 % 1014,5 hPa 0,0 l/m 0 min 0 min 0,0 UV-I 5 W/m 0,0 km/h (0 Bft)
25.07.2014 06:06 16,3 C 15,0 C 90 % 1014,5 hPa 0,0 l/m 0 min 0 min 0,0 UV-I 6 W/m 0,0 km/h (0 Bft)
25.07.2014 06:08 16,3 C 15,0 C 90 % 1014,5 hPa 0,0 l/m 0 min 0 min 0,0 UV-I 7 W/m 0,0 km/h (0 Bft)
25.07.2014 06:10 16,3 C 15,0 C 90 % 1014,4 hPa 0,0 l/m 0 min 0 min 0,0 UV-I 7 W/m 0,0 km/h (0 Bft)
25.07.2014 06:12 16,3 C 15,0 C 90 % 1014,5 hPa 0,0 l/m 0 min 0 min 0,0 UV-I 7 W/m 0,0 km/h (0 Bft)
25.07.2014 06:14 16,3 C 15,0 C 90 % 1014,5 hPa 0,0 l/m 0 min 0 min 0,0 UV-I 9 W/m 0,0 km/h (0 Bft)
25.07.2014 06:16 16,3 C 15,0 C 90 % 1014,5 hPa 0,0 l/m 0 min 0 min 0,0 UV-I 11 W/m 0,0 km/h (0 Bft)
25.07.2014 06:18 16,4 C 15,0 C 90 % 1014,4 hPa 0,0 l/m 0 min 0 min 0,0 UV-I 13 W/m 0,0 km/h (0 Bft)
25.07.2014 06:20 16,4 C 15,0 C 90 % 1014,4 hPa 0,0 l/m 0 min 0 min 0,0 UV-I 14 W/m 4,2 km/h (1 Bft)
25.07.2014 06:22 16,4 C 15,6 C 90 % 1014,5 hPa 0,0 l/m 0 min 0 min 0,0 UV-I 16 W/m 0,0 km/h (0 Bft)
25.07.2014 06:24 16,4 C 15,6 C 90 % 1014,4 hPa 0,0 l/m 0 min 0 min 0,0 UV-I 18 W/m 0,0 km/h (0 Bft)
25.07.2014 06:26 16,4 C 15,6 C 90 % 1014,5 hPa 0,0 l/m 0 min 0 min 0,0 UV-I 19 W/m 0,0 km/h (0 Bft)
25.07.2014 06:28 16,4 C 15,6 C 90 % 1014,5 hPa 0,0 l/m 0 min 0 min 0,0 UV-I 20 W/m 0,0 km/h (0 Bft)
25.07.2014 06:30 16,4 C 15,6 C 90 % 1014,5 hPa 0,0 l/m 0 min 0 min 0,0 UV-I 22 W/m 0,0 km/h (0 Bft)
25.07.2014 06:32 16,4 C 15,6 C 90 % 1014,5 hPa 0,0 l/m 0 min 0 min 0,0 UV-I 23 W/m 0,0 km/h (0 Bft)
25.07.2014 06:34 16,5 C 15,6 C 90 % 1014,5 hPa 0,0 l/m 0 min 0 min 0,0 UV-I 24 W/m 0,0 km/h (0 Bft)
25.07.2014 06:36 16,5 C 15,6 C 90 % 1014,5 hPa 0,0 l/m 0 min 0 min 0,0 UV-I 25 W/m 0,0 km/h (0 Bft)
25.07.2014 06:38 16,5 C 15,6 C 90 % 1014,5 hPa 0,0 l/m 0 min 0 min 0,0 UV-I 26 W/m 0,0 km/h (0 Bft)
25.07.2014 06:40 16,6 C 15,6 C 90 % 1014,5 hPa 0,0 l/m 0 min 0 min 0,0 UV-I 27 W/m 0,0 km/h (0 Bft)
25.07.2014 06:42 16,6 C 15,6 C 90 % 1014,6 hPa 0,0 l/m 0 min 0 min 0,0 UV-I 28 W/m 0,0 km/h (0 Bft)
25.07.2014 06:44 16,6 C 15,6 C 90 % 1014,5 hPa 0,0 l/m 0 min 0 min 0,0 UV-I 29 W/m 0,0 km/h (0 Bft)
25.07.2014 06:46 16,7 C 15,6 C 90 % 1014,5 hPa 0,0 l/m 0 min 0 min 0,0 UV-I 32 W/m 0,0 km/h (0 Bft)
25.07.2014 06:48 16,7 C 15,6 C 90 % 1014,5 hPa 0,0 l/m 0 min 0 min 0,0 UV-I 33 W/m 0,0 km/h (0 Bft)
25.07.2014 06:50 16,7 C 15,6 C 92 % 1014,5 hPa 0,0 l/m 0 min 0 min 0,0 UV-I 36 W/m 0,0 km/h (0 Bft)
25.07.2014 06:52 16,7 C 16,1 C 90 % 1014,5 hPa 0,0 l/m 0 min 0 min 0,0 UV-I 38 W/m 0,0 km/h (0 Bft)
25.07.2014 06:54 16,8 C 16,1 C 90 % 1014,5 hPa 0,0 l/m 0 min 0 min 0,0 UV-I 42 W/m 0,0 km/h (0 Bft)
25.07.2014 06:56 16,8 C 16,1 C 90 % 1014,5 hPa 0,0 l/m 0 min 0 min 0,0 UV-I 44 W/m 2,1 km/h (1 Bft)
25.07.2014 06:58 16,9 C 16,1 C 90 % 1014,5 hPa 0,0 l/m 0 min 0 min 0,0 UV-I 41 W/m 0,0 km/h (0 Bft)
25.07.2014 07:00 16,9 C 16,1 C 89 % 1014,5 hPa 0,0 l/m 0 min 0 min 0,0 UV-I 38 W/m 0,0 km/h (0 Bft)
25.07.2014 07:02 17,0 C 16,1 C 89 % 1014,5 hPa 0,0 l/m 0 min 0 min 0,0 UV-I 35 W/m 0,0 km/h (0 Bft)
25.07.2014 07:04 16,9 C 16,1 C 90 % 1014,5 hPa 0,0 l/m 0 min 0 min 0,0 UV-I 32 W/m 0,0 km/h (0 Bft)
25.07.2014 07:06 16,9 C 16,1 C 90 % 1014,5 hPa 0,0 l/m 0 min 0 min 0,0 UV-I 30 W/m 0,0 km/h (0 Bft)
25.07.2014 07:08 16,9 C 16,1 C 90 % 1014,6 hPa 0,0 l/m 0 min 0 min 0,0 UV-I 31 W/m 0,0 km/h (0 Bft)
25.07.2014 07:10 16,9 C 16,1 C 90 % 1014,5 hPa 0,0 l/m 0 min 0 min 0,0 UV-I 34 W/m 0,0 km/h (0 Bft)
25.07.2014 07:12 16,9 C 16,1 C 90 % 1014,5 hPa 0,0 l/m 0 min 0 min 0,0 UV-I 37 W/m 0,0 km/h (0 Bft)
25.07.2014 07:14 16,9 C 16,1 C 91 % 1014,5 hPa 0,0 l/m 0 min 0 min 0,0 UV-I 42 W/m 0,0 km/h (0 Bft)
25.07.2014 07:16 16,9 C 16,1 C 91 % 1014,5 hPa 0,0 l/m 0 min 0 min 0,0 UV-I 48 W/m 0,0 km/h (0 Bft)
25.07.2014 07:18 16,8 C 16,1 C 91 % 1014,5 hPa 0,0 l/m 0 min 0 min 0,0 UV-I 59 W/m 0,0 km/h (0 Bft)
25.07.2014 07:20 16,9 C 16,1 C 92 % 1014,6 hPa 0,0 l/m 0 min 0 min 0,0 UV-I 66 W/m 0,0 km/h (0 Bft)
25.07.2014 07:22 16,9 C 16,1 C 92 % 1014,6 hPa 0,0 l/m 0 min 0 min 0,0 UV-I 73 W/m 0,0 km/h (0 Bft)
25.07.2014 07:24 16,9 C 16,1 C 92 % 1014,6 hPa 0,0 l/m 0 min 0 min 0,0 UV-I 78 W/m 0,0 km/h (0 Bft)
25.07.2014 07:26 17,0 C 16,7 C 92 % 1014,6 hPa 0,0 l/m 0 min 0 min 0,0 UV-I 84 W/m 0,0 km/h (0 Bft)
25.07.2014 07:28 17,0 C 16,7 C 92 % 1014,6 hPa 0,0 l/m 0 min 0 min 0,0 UV-I 88 W/m 0,0 km/h (0 Bft)
25.07.2014 07:30 17,1 C 16,7 C 92 % 1014,6 hPa 0,0 l/m 0 min 0 min 0,0 UV-I 88 W/m 2,1 km/h (1 Bft)
25.07.2014 07:32 17,2 C 16,7 C 92 % 1014,6 hPa 0,0 l/m 0 min 0 min 0,0 UV-I 88 W/m 2,1 km/h (1 Bft)
25.07.2014 07:34 17,3 C 16,7 C 92 % 1014,6 hPa 0,0 l/m 0 min 0 min 0,0 UV-I 88 W/m 6,3 km/h (2 Bft)
25.07.2014 07:36 17,4 C 16,7 C 91 % 1014,6 hPa 0,0 l/m 0 min 0 min 0,0 UV-I 89 W/m 4,2 km/h (1 Bft)
25.07.2014 07:38 17,4 C 16,7 C 90 % 1014,6 hPa 0,0 l/m 0 min 0 min 0,0 UV-I 90 W/m 16,7 km/h (3 Bft)
25.07.2014 07:40 17,5 C 16,7 C 90 % 1014,6 hPa 0,0 l/m 0 min 0 min 0,0 UV-I 89 W/m 10,5 km/h (2 Bft)
25.07.2014 07:42 17,6 C 16,7 C 89 % 1014,7 hPa 0,0 l/m 0 min 0 min 0,0 UV-I 88 W/m 12,6 km/h (3 Bft)
25.07.2014 07:44 17,7 C 17,2 C 89 % 1014,7 hPa 0,0 l/m 0 min 0 min 0,0 UV-I 87 W/m 10,5 km/h (2 Bft)
25.07.2014 07:46 17,7 C 17,2 C 88 % 1014,7 hPa 0,0 l/m 0 min 0 min 0,0 UV-I 87 W/m 10,5 km/h (2 Bft)
25.07.2014 07:48 17,7 C 17,2 C 89 % 1014,7 hPa 0,0 l/m 0 min 0 min 0,0 UV-I 91 W/m 14,6 km/h (3 Bft)
25.07.2014 07:50 17,8 C 17,2 C 88 % 1014,7 hPa 0,0 l/m 0 min 0 min 0,0 UV-I 95 W/m 6,3 km/h (2 Bft)
25.07.2014 07:52 17,8 C 17,2 C 88 % 1014,8 hPa 0,0 l/m 0 min 0 min 0,0 UV-I 97 W/m 10,5 km/h (2 Bft)
25.07.2014 07:54 17,8 C 17,2 C 88 % 1014,8 hPa 0,0 l/m 0 min 0 min 0,0 UV-I 96 W/m 12,6 km/h (3 Bft)
25.07.2014 07:56 17,9 C 17,2 C 88 % 1014,7 hPa 0,0 l/m 0 min 0 min 0,0 UV-I 95 W/m 12,6 km/h (3 Bft)
25.07.2014 07:58 17,9 C 17,2 C 88 % 1014,7 hPa 0,0 l/m 0 min 0 min 0,0 UV-I 95 W/m 6,3 km/h (2 Bft)
25.07.2014 08:00 17,9 C 17,2 C 88 % 1014,7 hPa 0,0 l/m 0 min 0 min 0,0 UV-I 97 W/m 10,5 km/h (2 Bft)
25.07.2014 08:02 17,9 C 17,2 C 88 % 1014,7 hPa 0,0 l/m 0 min 0 min 0,0 UV-I 100 W/m 10,5 km/h (2 Bft)
25.07.2014 08:04 17,9 C 17,2 C 88 % 1014,6 hPa 0,0 l/m 0 min 0 min 0,0 UV-I 104 W/m 14,6 km/h (3 Bft)
25.07.2014 08:06 18,0 C 17,2 C 88 % 1014,6 hPa 0,0 l/m 0 min 0 min 0,0 UV-I 107 W/m 14,6 km/h (3 Bft)
25.07.2014 08:08 18,0 C 17,2 C 87 % 1014,7 hPa 0,0 l/m 0 min 0 min 0,0 UV-I 105 W/m 16,7 km/h (3 Bft)
25.07.2014 08:10 18,0 C 17,2 C 87 % 1014,7 hPa 0,0 l/m 0 min 0 min 0,0 UV-I 98 W/m 12,6 km/h (3 Bft)
25.07.2014 08:12 18,1 C 17,2 C 87 % 1014,7 hPa 0,0 l/m 0 min 0 min 0,0 UV-I 100 W/m 8,4 km/h (2 Bft)
25.07.2014 08:14 18,1 C 17,2 C 87 % 1014,7 hPa 0,0 l/m 0 min 0 min 0,0 UV-I 104 W/m 10,5 km/h (2 Bft)
25.07.2014 08:16 18,1 C 17,2 C 87 % 1014,7 hPa 0,0 l/m 0 min 0 min 0,0 UV-I 108 W/m 16,7 km/h (3 Bft)
25.07.2014 08:18 18,1 C 17,8 C 87 % 1014,7 hPa 0,0 l/m 0 min 0 min 0,0 UV-I 116 W/m 16,7 km/h (3 Bft)
25.07.2014 08:20 18,2 C 17,8 C 87 % 1014,7 hPa 0,0 l/m 0 min 0 min 0,0 UV-I 125 W/m 12,6 km/h (3 Bft)
25.07.2014 08:22 18,2 C 17,8 C 87 % 1014,7 hPa 0,0 l/m 0 min 0 min 0,0 UV-I 129 W/m 14,6 km/h (3 Bft)
25.07.2014 08:24 18,2 C 17,8 C 87 % 1014,7 hPa 0,0 l/m 0 min 0 min 0,0 UV-I 127 W/m 16,7 km/h (3 Bft)
25.07.2014 08:26 18,2 C 17,8 C 86 % 1014,8 hPa 0,0 l/m 0 min 0 min 0,0 UV-I 115 W/m 14,6 km/h (3 Bft)
25.07.2014 08:28 18,2 C 17,8 C 86 % 1014,8 hPa 0,0 l/m 0 min 0 min 0,0 UV-I 104 W/m 14,6 km/h (3 Bft)
25.07.2014 08:30 18,3 C 17,8 C 86 % 1014,8 hPa 0,0 l/m 0 min 0 min 0,0 UV-I 107 W/m 14,6 km/h (3 Bft)
25.07.2014 08:32 18,3 C 17,8 C 87 % 1014,7 hPa 0,0 l/m 0 min 0 min 0,0 UV-I 121 W/m 16,7 km/h (3 Bft)
25.07.2014 08:34 18,3 C 17,8 C 87 % 1014,7 hPa 0,0 l/m 0 min 0 min 0,0 UV-I 139 W/m 10,5 km/h (2 Bft)
25.07.2014 08:36 18,3 C 17,8 C 86 % 1014,7 hPa 0,0 l/m 0 min 0 min 0,0 UV-I 140 W/m 10,5 km/h (2 Bft)
25.07.2014 08:38 18,4 C 17,8 C 87 % 1014,7 hPa 0,0 l/m 0 min 0 min 0,0 UV-I 141 W/m 14,6 km/h (3 Bft)
25.07.2014 08:40 18,5 C 17,8 C 87 % 1014,7 hPa 0,0 l/m 0 min 0 min 0,0 UV-I 144 W/m 10,5 km/h (2 Bft)
25.07.2014 08:42 18,5 C 17,8 C 86 % 1014,7 hPa 0,0 l/m 0 min 0 min 0,0 UV-I 148 W/m 10,5 km/h (2 Bft)
25.07.2014 08:44 18,6 C 18,3 C 86 % 1014,7 hPa 0,0 l/m 0 min 0 min 0,0 UV-I 154 W/m 12,6 km/h (3 Bft)
25.07.2014 08:46 18,6 C 18,3 C 86 % 1014,7 hPa 0,0 l/m 0 min 0 min 0,0 UV-I 159 W/m 16,7 km/h (3 Bft)
25.07.2014 08:48 18,7 C 18,3 C 86 % 1014,7 hPa 0,0 l/m 0 min 0 min 0,0 UV-I 163 W/m 14,6 km/h (3 Bft)
25.07.2014 08:50 18,7 C 18,3 C 86 % 1014,7 hPa 0,0 l/m 0 min 0 min 0,0 UV-I 165 W/m 0,0 km/h (0 Bft)
25.07.2014 08:52 18,8 C 18,3 C 86 % 1014,7 hPa 0,0 l/m 0 min 0 min 0,0 UV-I 164 W/m 10,5 km/h (2 Bft)
25.07.2014 08:54 18,8 C 18,3 C 86 % 1014,7 hPa 0,0 l/m 0 min 0 min 0,0 UV-I 160 W/m 14,6 km/h (3 Bft)
25.07.2014 08:56 18,8 C 18,3 C 85 % 1014,8 hPa 0,0 l/m 0 min 0 min 0,0 UV-I 156 W/m 10,5 km/h (2 Bft)
25.07.2014 08:58 18,8 C 18,3 C 85 % 1014,8 hPa 0,0 l/m 0 min 0 min 0,0 UV-I 150 W/m 16,7 km/h (3 Bft)
25.07.2014 09:00 18,9 C 18,3 C 85 % 1014,8 hPa 0,0 l/m 0 min 0 min 0,0 UV-I 143 W/m 10,5 km/h (2 Bft)
25.07.2014 09:02 18,9 C 18,3 C 85 % 1014,8 hPa 0,0 l/m 0 min 0 min 0,0 UV-I 141 W/m 14,6 km/h (3 Bft)
25.07.2014 09:04 18,9 C 18,3 C 85 % 1014,8 hPa 0,0 l/m 0 min 0 min 0,0 UV-I 142 W/m 8,4 km/h (2 Bft)
25.07.2014 09:06 18,9 C 18,3 C 86 % 1014,8 hPa 0,0 l/m 0 min 0 min 0,0 UV-I 143 W/m 8,4 km/h (2 Bft)
25.07.2014 09:08 19,0 C 18,9 C 85 % 1014,8 hPa 0,0 l/m 0 min 0 min 0,0 UV-I 148 W/m 6,3 km/h (2 Bft)
25.07.2014 09:10 19,0 C 18,9 C 85 % 1014,8 hPa 0,0 l/m 0 min 0 min 0,0 UV-I 149 W/m 4,2 km/h (1 Bft)
25.07.2014 09:12 19,1 C 18,9 C 85 % 1014,8 hPa 0,0 l/m 0 min 0 min 0,0 UV-I 149 W/m 14,6 km/h (3 Bft)
25.07.2014 09:14 19,1 C 18,9 C 84 % 1014,7 hPa 0,0 l/m 0 min 0 min 0,0 UV-I 149 W/m 18,8 km/h (3 Bft)
25.07.2014 09:16 19,0 C 18,3 C 84 % 1014,8 hPa 0,0 l/m 0 min 0 min 0,0 UV-I 149 W/m 18,8 km/h (3 Bft)
25.07.2014 09:18 19,0 C 18,3 C 84 % 1014,8 hPa 0,0 l/m 0 min 0 min 0,0 UV-I 149 W/m 12,6 km/h (3 Bft)
25.07.2014 09:20 19,1 C 18,3 C 84 % 1014,8 hPa 0,0 l/m 0 min 0 min 0,0 UV-I 143 W/m 14,6 km/h (3 Bft)
25.07.2014 09:22 19,1 C 18,3 C 84 % 1014,8 hPa 0,0 l/m 0 min 0 min 0,0 UV-I 136 W/m 16,7 km/h (3 Bft)
25.07.2014 09:24 19,1 C 18,3 C 84 % 1014,8 hPa 0,0 l/m 0 min 0 min 0,0 UV-I 135 W/m 20,9 km/h (4 Bft)
25.07.2014 09:26 19,0 C 18,3 C 84 % 1014,8 hPa 0,0 l/m 0 min 0 min 0,0 UV-I 142 W/m 20,9 km/h (4 Bft)
25.07.2014 09:28 19,0 C 18,3 C 84 % 1014,8 hPa 0,0 l/m 0 min 0 min 0,0 UV-I 148 W/m 16,7 km/h (3 Bft)
25.07.2014 09:30 19,0 C 18,3 C 84 % 1014,8 hPa 0,0 l/m 0 min 0 min 0,0 UV-I 141 W/m 16,7 km/h (3 Bft)
25.07.2014 09:32 19,0 C 18,3 C 84 % 1014,8 hPa 0,0 l/m 0 min 0 min 0,0 UV-I 129 W/m 20,9 km/h (4 Bft)
25.07.2014 09:34 19,0 C 18,3 C 84 % 1014,8 hPa 0,0 l/m 0 min 0 min 0,0 UV-I 125 W/m 20,9 km/h (4 Bft)
25.07.2014 09:36 19,0 C 18,3 C 84 % 1014,8 hPa 0,0 l/m 0 min 0 min 0,0 UV-I 132 W/m 23,0 km/h (4 Bft)
25.07.2014 09:38 18,9 C 18,3 C 84 % 1014,8 hPa 0,0 l/m 0 min 0 min 0,0 UV-I 146 W/m 20,9 km/h (4 Bft)
25.07.2014 09:40 18,9 C 18,3 C 83 % 1014,8 hPa 0,0 l/m 0 min 0 min 0,0 UV-I 152 W/m 16,7 km/h (3 Bft)
25.07.2014 09:42 18,9 C 18,3 C 84 % 1014,8 hPa 0,0 l/m 0 min 0 min 0,0 UV-I 146 W/m 14,6 km/h (3 Bft)
25.07.2014 09:44 19,0 C 18,3 C 84 % 1014,8 hPa 0,0 l/m 0 min 0 min 0,0 UV-I 143 W/m 16,7 km/h (3 Bft)
25.07.2014 09:46 19,0 C 18,3 C 84 % 1014,8 hPa 0,0 l/m 0 min 0 min 0,0 UV-I 141 W/m 18,8 km/h (3 Bft)
25.07.2014 09:48 19,1 C 18,3 C 84 % 1014,8 hPa 0,0 l/m 0 min 0 min 0,0 UV-I 142 W/m 20,9 km/h (4 Bft)
25.07.2014 09:50 19,1 C 18,3 C 83 % 1014,8 hPa 0,0 l/m 0 min 0 min 0,0 UV-I 157 W/m 20,9 km/h (4 Bft)
25.07.2014 09:52 19,1 C 18,9 C 84 % 1014,8 hPa 0,0 l/m 0 min 0 min 0,0 UV-I 184 W/m 14,6 km/h (3 Bft)
25.07.2014 09:54 19,1 C 18,9 C 84 % 1014,8 hPa 0,0 l/m 0 min 0 min 0,0 UV-I 195 W/m 18,8 km/h (3 Bft)
25.07.2014 09:56 19,1 C 18,9 C 83 % 1014,8 hPa 0,0 l/m 0 min 0 min 0,0 UV-I 194 W/m 14,6 km/h (3 Bft)
25.07.2014 09:58 19,1 C 18,9 C 83 % 1014,8 hPa 0,0 l/m 0 min 0 min 0,1 UV-I 199 W/m 25,1 km/h (4 Bft)
25.07.2014 10:00 19,2 C 18,9 C 83 % 1014,8 hPa 0,0 l/m 0 min 0 min 0,5 UV-I 210 W/m 14,6 km/h (3 Bft)
25.07.2014 10:02 19,3 C 19,4 C 84 % 1014,8 hPa 0,0 l/m 0 min 0 min 0,5 UV-I 224 W/m 14,6 km/h (3 Bft)
25.07.2014 10:04 19,4 C 19,4 C 83 % 1014,8 hPa 0,0 l/m 0 min 0 min 0,6 UV-I 234 W/m 14,6 km/h (3 Bft)
25.07.2014 10:06 19,5 C 19,4 C 83 % 1014,8 hPa 0,0 l/m 0 min 0 min 0,6 UV-I 244 W/m 12,6 km/h (3 Bft)
25.07.2014 10:08 19,6 C 19,4 C 83 % 1014,8 hPa 0,0 l/m 0 min 0 min 0,7 UV-I 248 W/m 12,6 km/h (3 Bft)
25.07.2014 10:10 19,6 C 19,4 C 83 % 1014,8 hPa 0,0 l/m 0 min 0 min 0,7 UV-I 246 W/m 14,6 km/h (3 Bft)
25.07.2014 10:12 19,7 C 19,4 C 83 % 1014,8 hPa 0,0 l/m 0 min 0 min 0,7 UV-I 234 W/m 12,6 km/h (3 Bft)
25.07.2014 10:14 19,7 C 19,4 C 83 % 1014,8 hPa 0,0 l/m 0 min 0 min 0,6 UV-I 210 W/m 14,6 km/h (3 Bft)
25.07.2014 10:16 19,7 C 19,4 C 82 % 1014,8 hPa 0,0 l/m 0 min 0 min 0,5 UV-I 201 W/m 14,6 km/h (3 Bft)
25.07.2014 10:18 19,7 C 19,4 C 82 % 1014,8 hPa 0,0 l/m 0 min 0 min 0,5 UV-I 196 W/m 18,8 km/h (3 Bft)
25.07.2014 10:20 19,6 C 19,4 C 82 % 1014,8 hPa 0,0 l/m 0 min 0 min 0,3 UV-I 183 W/m 16,7 km/h (3 Bft)
25.07.2014 10:22 19,6 C 19,4 C 83 % 1014,8 hPa 0,0 l/m 0 min 0 min 0,0 UV-I 174 W/m 16,7 km/h (3 Bft)
25.07.2014 10:24 19,5 C 18,9 C 82 % 1014,8 hPa 0,0 l/m 0 min 0 min 0,0 UV-I 170 W/m 16,7 km/h (3 Bft)
25.07.2014 10:26 19,5 C 18,9 C 82 % 1014,8 hPa 0,0 l/m 0 min 0 min 0,0 UV-I 168 W/m 16,7 km/h (3 Bft)
25.07.2014 10:28 19,5 C 18,9 C 83 % 1014,8 hPa 0,0 l/m 0 min 0 min 0,0 UV-I 169 W/m 16,7 km/h (3 Bft)
25.07.2014 10:30 19,5 C 19,4 C 82 % 1014,8 hPa 0,0 l/m 0 min 0 min 0,4 UV-I 178 W/m 14,6 km/h (3 Bft)
25.07.2014 10:32 19,6 C 19,4 C 83 % 1014,8 hPa 0,0 l/m 0 min 0 min 0,5 UV-I 194 W/m 14,6 km/h (3 Bft)
25.07.2014 10:34 19,6 C 19,4 C 82 % 1014,8 hPa 0,0 l/m 0 min 0 min 0,6 UV-I 205 W/m 18,8 km/h (3 Bft)
25.07.2014 10:36 19,6 C 19,4 C 82 % 1014,8 hPa 0,0 l/m 0 min 0 min 0,7 UV-I 216 W/m 16,7 km/h (3 Bft)
25.07.2014 10:38 19,6 C 19,4 C 82 % 1014,8 hPa 0,0 l/m 0 min 0 min 0,9 UV-I 235 W/m 18,8 km/h (3 Bft)
25.07.2014 10:40 19,7 C 20,0 C 82 % 1014,8 hPa 0,0 l/m 0 min 0 min 1,1 UV-I 258 W/m 10,5 km/h (2 Bft)
25.07.2014 10:42 19,8 C 20,0 C 82 % 1014,8 hPa 0,0 l/m 0 min 0 min 1,3 UV-I 318 W/m 16,7 km/h (3 Bft)
25.07.2014 10:44 19,8 C 20,0 C 82 % 1014,8 hPa 0,0 l/m 0 min 0 min 1,3 UV-I 316 W/m 14,6 km/h (3 Bft)
25.07.2014 10:46 19,9 C 20,0 C 81 % 1014,8 hPa 0,0 l/m 0 min 0 min 1,1 UV-I 281 W/m 14,6 km/h (3 Bft)
25.07.2014 10:48 19,9 C 20,0 C 81 % 1014,8 hPa 0,0 l/m 0 min 0 min 0,8 UV-I 237 W/m 10,5 km/h (2 Bft)
25.07.2014 10:50 20,1 C 20,0 C 82 % 1014,7 hPa 0,0 l/m 0 min 0 min 0,2 UV-I 187 W/m 14,6 km/h (3 Bft)
25.07.2014 10:52 20,1 C 20,0 C 81 % 1014,7 hPa 0,0 l/m 0 min 0 min 0,0 UV-I 142 W/m 14,6 km/h (3 Bft)
25.07.2014 10:54 19,9 C 19,4 C 80 % 1014,7 hPa 0,0 l/m 0 min 0 min 0,0 UV-I 111 W/m 16,7 km/h (3 Bft)
25.07.2014 10:56 19,8 C 19,4 C 82 % 1014,7 hPa 0,0 l/m 0 min 0 min 0,0 UV-I 98 W/m 10,5 km/h (2 Bft)
25.07.2014 10:58 19,7 C 18,9 C 82 % 1014,8 hPa 0,0 l/m 0 min 0 min 0,0 UV-I 96 W/m 18,8 km/h (3 Bft)
25.07.2014 11:00 19,6 C 18,9 C 82 % 1014,7 hPa 0,0 l/m 0 min 0 min 0,0 UV-I 98 W/m 12,6 km/h (3 Bft)
25.07.2014 11:02 19,6 C 18,9 C 82 % 1014,7 hPa 0,0 l/m 0 min 0 min 0,0 UV-I 102 W/m 14,6 km/h (3 Bft)
25.07.2014 11:04 19,4 C 18,9 C 82 % 1014,7 hPa 0,0 l/m 0 min 0 min 0,0 UV-I 104 W/m 8,4 km/h (2 Bft)
25.07.2014 11:06 19,4 C 18,9 C 83 % 1014,7 hPa 0,0 l/m 0 min 0 min 0,0 UV-I 104 W/m 12,6 km/h (3 Bft)
25.07.2014 11:08 19,4 C 18,9 C 83 % 1014,7 hPa 0,0 l/m 0 min 0 min 0,0 UV-I 104 W/m 14,6 km/h (3 Bft)
25.07.2014 11:10 19,4 C 18,9 C 83 % 1014,8 hPa 0,0 l/m 0 min 0 min 0,0 UV-I 106 W/m 8,4 km/h (2 Bft)
25.07.2014 11:12 19,4 C 18,9 C 84 % 1014,7 hPa 0,0 l/m 0 min 0 min 0,0 UV-I 113 W/m 14,6 km/h (3 Bft)
25.07.2014 11:14 19,4 C 18,9 C 84 % 1014,8 hPa 0,0 l/m 0 min 0 min 0,0 UV-I 119 W/m 10,5 km/h (2 Bft)
25.07.2014 11:16 19,4 C 18,9 C 83 % 1014,8 hPa 0,0 l/m 0 min 0 min 0,0 UV-I 128 W/m 14,6 km/h (3 Bft)
25.07.2014 11:18 19,4 C 18,9 C 83 % 1014,7 hPa 0,0 l/m 0 min 0 min 0,0 UV-I 132 W/m 12,6 km/h (3 Bft)
25.07.2014 11:20 19,4 C 18,9 C 83 % 1014,7 hPa 0,0 l/m 0 min 0 min 0,0 UV-I 128 W/m 10,5 km/h (2 Bft)
25.07.2014 11:22 19,4 C 18,9 C 83 % 1014,8 hPa 0,0 l/m 0 min 0 min 0,0 UV-I 138 W/m 10,5 km/h (2 Bft)
25.07.2014 11:24 19,6 C 18,9 C 84 % 1014,7 hPa 0,0 l/m 0 min 0 min 0,0 UV-I 161 W/m 8,4 km/h (2 Bft)
25.07.2014 11:26 19,6 C 19,4 C 84 % 1014,8 hPa 0,0 l/m 0 min 0 min 0,5 UV-I 179 W/m 14,6 km/h (3 Bft)
25.07.2014 11:28 19,6 C 19,4 C 83 % 1014,7 hPa 0,0 l/m 0 min 0 min 0,7 UV-I 199 W/m 16,7 km/h (3 Bft)
25.07.2014 11:30 19,5 C 19,4 C 83 % 1014,7 hPa 0,0 l/m 0 min 0 min 0,8 UV-I 205 W/m 18,8 km/h (3 Bft)
25.07.2014 11:32 19,4 C 18,9 C 82 % 1014,7 hPa 0,0 l/m 0 min 0 min 0,6 UV-I 178 W/m 14,6 km/h (3 Bft)
25.07.2014 11:34 19,4 C 18,9 C 83 % 1014,7 hPa 0,0 l/m 0 min 0 min 0,5 UV-I 163 W/m 10,5 km/h (2 Bft)
25.07.2014 11:36 19,4 C 18,9 C 83 % 1014,7 hPa 0,0 l/m 0 min 0 min 0,5 UV-I 162 W/m 10,5 km/h (2 Bft)
25.07.2014 11:38 19,5 C 18,9 C 83 % 1014,7 hPa 0,0 l/m 0 min 0 min 0,5 UV-I 168 W/m 12,6 km/h (3 Bft)
25.07.2014 11:40 19,5 C 18,9 C 83 % 1014,7 hPa 0,0 l/m 0 min 0 min 0,5 UV-I 170 W/m 14,6 km/h (3 Bft)
25.07.2014 11:42 19,5 C 18,9 C 83 % 1014,7 hPa 0,0 l/m 0 min 0 min 0,3 UV-I 160 W/m 14,6 km/h (3 Bft)
25.07.2014 11:44 19,5 C 18,9 C 83 % 1014,7 hPa 0,0 l/m 0 min 0 min 0,0 UV-I 149 W/m 18,8 km/h (3 Bft)
25.07.2014 11:46 19,4 C 18,9 C 83 % 1014,7 hPa 0,0 l/m 0 min 0 min 0,0 UV-I 144 W/m 18,8 km/h (3 Bft)
25.07.2014 11:48 19,4 C 18,9 C 84 % 1014,6 hPa 0,0 l/m 0 min 0 min 0,0 UV-I 143 W/m 12,6 km/h (3 Bft)
25.07.2014 11:50 19,3 C 18,9 C 84 % 1014,7 hPa 0,0 l/m 0 min 0 min 0,1 UV-I 156 W/m 18,8 km/h (3 Bft)
25.07.2014 11:52 19,3 C 18,9 C 84 % 1014,7 hPa 0,0 l/m 0 min 0 min 0,5 UV-I 170 W/m 14,6 km/h (3 Bft)
25.07.2014 11:54 19,3 C 18,9 C 84 % 1014,7 hPa 0,0 l/m 0 min 0 min 0,7 UV-I 184 W/m 20,9 km/h (4 Bft)
25.07.2014 11:56 19,2 C 18,9 C 84 % 1014,7 hPa 0,0 l/m 0 min 0 min 0,8 UV-I 201 W/m 14,6 km/h (3 Bft)
25.07.2014 11:58 19,3 C 18,9 C 85 % 1014,7 hPa 0,0 l/m 0 min 0 min 0,9 UV-I 225 W/m 12,6 km/h (3 Bft)
25.07.2014 12:00 19,3 C 18,9 C 85 % 1014,6 hPa 0,0 l/m 0 min 0 min 1,0 UV-I 253 W/m 10,5 km/h (2 Bft)
25.07.2014 12:02 19,4 C 19,4 C 84 % 1014,6 hPa 0,0 l/m 0 min 0 min 1,1 UV-I 262 W/m 18,8 km/h (3 Bft)
25.07.2014 12:06 19,5 C 19,4 C 84 % 1014,6 hPa 0,0 l/m 0 min 0 min 0,9 UV-I 226 W/m 18,8 km/h (3 Bft)
25.07.2014 12:08 19,6 C 19,4 C 84 % 1014,6 hPa 0,0 l/m 0 min 0 min 0,6 UV-I 184 W/m 16,7 km/h (3 Bft)
25.07.2014 12:10 19,4 C 18,9 C 83 % 1014,6 hPa 0,0 l/m 0 min 0 min 0,1 UV-I 159 W/m 14,6 km/h (3 Bft)
25.07.2014 12:12 19,4 C 18,9 C 83 % 1014,6 hPa 0,0 l/m 0 min 0 min 0,0 UV-I 131 W/m 16,7 km/h (3 Bft)
25.07.2014 12:14 19,3 C 18,9 C 84 % 1014,6 hPa 0,0 l/m 0 min 0 min 0,0 UV-I 102 W/m 10,5 km/h (2 Bft)
25.07.2014 12:16 19,3 C 18,3 C 84 % 1014,6 hPa 0,0 l/m 0 min 0 min 0,0 UV-I 81 W/m 12,6 km/h (3 Bft)
25.07.2014 12:18 19,2 C 18,3 C 85 % 1014,6 hPa 0,0 l/m 0 min 0 min 0,0 UV-I 83 W/m 20,9 km/h (4 Bft)
25.07.2014 12:20 19,2 C 18,3 C 85 % 1014,6 hPa 0,0 l/m 0 min 0 min 0,0 UV-I 113 W/m 23,0 km/h (4 Bft)
25.07.2014 12:22 19,2 C 18,3 C 86 % 1014,5 hPa 0,0 l/m 0 min 0 min 0,5 UV-I 166 W/m 16,7 km/h (3 Bft)
25.07.2014 12:24 19,2 C 18,9 C 85 % 1014,6 hPa 0,0 l/m 0 min 0 min 1,0 UV-I 233 W/m 20,9 km/h (4 Bft)
25.07.2014 12:26 19,2 C 18,9 C 85 % 1014,5 hPa 0,0 l/m 0 min 0 min 1,0 UV-I 243 W/m 20,9 km/h (4 Bft)
25.07.2014 12:28 19,2 C 18,9 C 85 % 1014,5 hPa 0,0 l/m 0 min 0 min 0,8 UV-I 201 W/m 18,8 km/h (3 Bft)
25.07.2014 12:30 19,2 C 18,9 C 85 % 1014,5 hPa 0,0 l/m 0 min 0 min 0,6 UV-I 178 W/m 18,8 km/h (3 Bft)
25.07.2014 12:32 19,2 C 18,9 C 85 % 1014,4 hPa 0,0 l/m 0 min 0 min 0,2 UV-I 171 W/m 16,7 km/h (3 Bft)
25.07.2014 12:34 19,2 C 18,9 C 85 % 1014,5 hPa 0,0 l/m 0 min 0 min 0,5 UV-I 176 W/m 20,9 km/h (4 Bft)
25.07.2014 12:36 19,3 C 18,9 C 85 % 1014,5 hPa 0,0 l/m 0 min 0 min 0,7 UV-I 203 W/m 14,6 km/h (3 Bft)
25.07.2014 12:38 19,3 C 18,9 C 85 % 1014,5 hPa 0,0 l/m 0 min 0 min 1,1 UV-I 254 W/m 16,7 km/h (3 Bft)
25.07.2014 12:40 19,4 C 19,4 C 85 % 1014,5 hPa 0,0 l/m 0 min 0 min 1,8 UV-I 331 W/m 18,8 km/h (3 Bft)
25.07.2014 12:42 19,4 C 20,0 C 84 % 1014,5 hPa 0,0 l/m 2 min 0 min 2,7 UV-I 446 W/m 16,7 km/h (3 Bft)
25.07.2014 12:44 19,6 C 20,0 C 84 % 1014,4 hPa 0,0 l/m 2 min 0 min 2,8 UV-I 496 W/m 16,7 km/h (3 Bft)
25.07.2014 12:46 19,8 C 20,6 C 85 % 1014,4 hPa 0,0 l/m 2 min 0 min 2,3 UV-I 442 W/m 23,0 km/h (4 Bft)
25.07.2014 12:48 20,0 C 21,1 C 83 % 1014,3 hPa 0,0 l/m 2 min 0 min 3,1 UV-I 540 W/m 18,8 km/h (3 Bft)
25.07.2014 12:50 20,3 C 21,1 C 83 % 1014,3 hPa 0,0 l/m 2 min 0 min 3,6 UV-I 647 W/m 25,1 km/h (4 Bft)
25.07.2014 12:52 20,4 C 21,7 C 83 % 1014,3 hPa 0,0 l/m 2 min 0 min 4,0 UV-I 706 W/m 18,8 km/h (3 Bft)
25.07.2014 12:54 20,4 C 21,7 C 82 % 1014,3 hPa 0,0 l/m 2 min 0 min 4,3 UV-I 755 W/m 20,9 km/h (4 Bft)
25.07.2014 12:56 20,6 C 21,7 C 82 % 1014,3 hPa 0,0 l/m 2 min 0 min 3,6 UV-I 770 W/m 20,9 km/h (4 Bft)
25.07.2014 12:58 20,6 C 21,7 C 81 % 1014,2 hPa 0,0 l/m 2 min 0 min 3,3 UV-I 675 W/m 16,7 km/h (3 Bft)
25.07.2014 13:00 20,7 C 21,7 C 81 % 1014,2 hPa 0,0 l/m 2 min 0 min 2,9 UV-I 510 W/m 14,6 km/h (3 Bft)
25.07.2014 13:02 20,6 C 21,1 C 80 % 1014,3 hPa 0,0 l/m 2 min 0 min 2,7 UV-I 431 W/m 29,3 km/h (5 Bft)
25.07.2014 13:04 20,3 C 21,1 C 80 % 1014,3 hPa 0,0 l/m 2 min 0 min 2,7 UV-I 446 W/m 25,1 km/h (4 Bft)
25.07.2014 13:06 20,2 C 21,1 C 81 % 1014,3 hPa 0,0 l/m 2 min 0 min 3,8 UV-I 556 W/m 20,9 km/h (4 Bft)
25.07.2014 13:08 20,2 C 21,1 C 81 % 1014,3 hPa 0,0 l/m 2 min 0 min 4,2 UV-I 770 W/m 20,9 km/h (4 Bft)
25.07.2014 13:10 20,5 C 21,7 C 83 % 1014,3 hPa 0,0 l/m 2 min 0 min 3,8 UV-I 615 W/m 18,8 km/h (3 Bft)
25.07.2014 13:12 20,6 C 21,7 C 81 % 1014,3 hPa 0,0 l/m 2 min 0 min 4,0 UV-I 594 W/m 25,1 km/h (4 Bft)
25.07.2014 13:14 20,6 C 21,1 C 81 % 1014,4 hPa 0,0 l/m 2 min 0 min 3,7 UV-I 562 W/m 25,1 km/h (4 Bft)
25.07.2014 13:16 20,4 C 21,1 C 81 % 1014,2 hPa 0,0 l/m 2 min 0 min 3,5 UV-I 528 W/m 20,9 km/h (4 Bft)
25.07.2014 13:18 20,3 C 21,1 C 81 % 1014,3 hPa 0,0 l/m 2 min 0 min 4,1 UV-I 554 W/m 23,0 km/h (4 Bft)
25.07.2014 13:20 20,4 C 21,1 C 81 % 1014,4 hPa 0,0 l/m 2 min 0 min 4,1 UV-I 878 W/m 27,2 km/h (4 Bft)
25.07.2014 13:22 20,4 C 21,1 C 80 % 1014,3 hPa 0,0 l/m 2 min 0 min 4,0 UV-I 645 W/m 25,1 km/h (4 Bft)
25.07.2014 13:24 20,5 C 21,7 C 81 % 1014,4 hPa 0,0 l/m 2 min 0 min 4,3 UV-I 888 W/m 20,9 km/h (4 Bft)
25.07.2014 13:26 20,6 C 21,7 C 81 % 1014,4 hPa 0,0 l/m 2 min 0 min 4,5 UV-I 1031 W/m 18,8 km/h (3 Bft)
25.07.2014 13:28 20,9 C 22,8 C 82 % 1014,3 hPa 0,0 l/m 2 min 0 min 4,8 UV-I 1039 W/m 20,9 km/h (4 Bft)
25.07.2014 13:30 21,2 C 22,2 C 80 % 1014,3 hPa 0,0 l/m 2 min 0 min 4,4 UV-I 947 W/m 25,1 km/h (4 Bft)
25.07.2014 13:32 21,1 C 22,2 C 79 % 1014,3 hPa 0,0 l/m 2 min 0 min 4,2 UV-I 947 W/m 25,1 km/h (4 Bft)
25.07.2014 13:34 21,0 C 22,2 C 80 % 1014,2 hPa 0,0 l/m 2 min 0 min 4,2 UV-I 887 W/m 23,0 km/h (4 Bft)
25.07.2014 13:36 21,0 C 22,2 C 80 % 1014,3 hPa 0,0 l/m 2 min 0 min 3,3 UV-I 563 W/m 23,0 km/h (4 Bft)
25.07.2014 13:38 21,0 C 21,7 C 80 % 1014,3 hPa 0,0 l/m 2 min 0 min 4,2 UV-I 550 W/m 20,9 km/h (4 Bft)
25.07.2014 13:40 21,0 C 22,2 C 79 % 1014,3 hPa 0,0 l/m 2 min 0 min 5,1 UV-I 555 W/m 20,9 km/h (4 Bft)
25.07.2014 13:42 21,1 C 22,2 C 79 % 1014,2 hPa 0,0 l/m 2 min 0 min 5,5 UV-I 863 W/m 18,8 km/h (3 Bft)
25.07.2014 13:44 21,2 C 22,2 C 80 % 1014,2 hPa 0,0 l/m 2 min 0 min 4,7 UV-I 865 W/m 20,9 km/h (4 Bft)
25.07.2014 13:46 21,2 C 22,2 C 79 % 1014,2 hPa 0,0 l/m 2 min 0 min 4,6 UV-I 762 W/m 27,2 km/h (4 Bft)
25.07.2014 13:48 21,2 C 21,7 C 79 % 1014,2 hPa 0,0 l/m 2 min 0 min 4,0 UV-I 703 W/m 23,0 km/h (4 Bft)
25.07.2014 13:50 21,1 C 21,7 C 79 % 1014,1 hPa 0,0 l/m 2 min 0 min 3,0 UV-I 463 W/m 23,0 km/h (4 Bft)
25.07.2014 13:52 20,9 C 21,1 C 79 % 1014,1 hPa 0,0 l/m 2 min 0 min 2,9 UV-I 422 W/m 23,0 km/h (4 Bft)
25.07.2014 13:54 20,8 C 21,1 C 80 % 1014,1 hPa 0,0 l/m 0 min 0 min 2,9 UV-I 403 W/m 18,8 km/h (3 Bft)
25.07.2014 13:56 20,8 C 21,7 C 80 % 1014,1 hPa 0,0 l/m 2 min 0 min 4,0 UV-I 412 W/m 27,2 km/h (4 Bft)
25.07.2014 13:58 20,7 C 21,1 C 79 % 1014,1 hPa 0,0 l/m 2 min 0 min 3,8 UV-I 712 W/m 16,7 km/h (3 Bft)
25.07.2014 14:00 20,7 C 21,1 C 80 % 1014,2 hPa 0,0 l/m 2 min 0 min 4,4 UV-I 508 W/m 23,0 km/h (4 Bft)
25.07.2014 14:02 20,6 C 21,1 C 80 % 1014,2 hPa 0,0 l/m 2 min 0 min 4,2 UV-I 783 W/m 20,9 km/h (4 Bft)
25.07.2014 14:04 20,6 C 21,1 C 80 % 1014,2 hPa 0,0 l/m 2 min 0 min 4,1 UV-I 677 W/m 20,9 km/h (4 Bft)
25.07.2014 14:06 20,7 C 21,7 C 81 % 1014,1 hPa 0,0 l/m 2 min 0 min 3,3 UV-I 591 W/m 14,6 km/h (3 Bft)
25.07.2014 14:08 20,8 C 21,7 C 81 % 1014,1 hPa 0,0 l/m 2 min 0 min 5,0 UV-I 736 W/m 27,2 km/h (4 Bft)
25.07.2014 14:10 20,8 C 21,7 C 80 % 1014,1 hPa 0,0 l/m 2 min 0 min 5,2 UV-I 1025 W/m 25,1 km/h (4 Bft)
25.07.2014 14:12 20,9 C 21,7 C 80 % 1014,0 hPa 0,0 l/m 2 min 0 min 5,3 UV-I 1011 W/m 29,3 km/h (5 Bft)
25.07.2014 14:14 21,2 C 22,2 C 81 % 1014,0 hPa 0,0 l/m 2 min 0 min 5,3 UV-I 987 W/m 25,1 km/h (4 Bft)
25.07.2014 14:16 21,2 C 21,7 C 79 % 1013,9 hPa 0,0 l/m 2 min 0 min 4,5 UV-I 880 W/m 25,1 km/h (4 Bft)
25.07.2014 14:18 21,1 C 22,2 C 79 % 1013,9 hPa 0,0 l/m 2 min 0 min 4,7 UV-I 843 W/m 25,1 km/h (4 Bft)
25.07.2014 14:20 21,2 C 22,2 C 79 % 1013,9 hPa 0,0 l/m 2 min 0 min 4,9 UV-I 925 W/m 23,0 km/h (4 Bft)
25.07.2014 14:22 21,1 C 21,7 C 79 % 1013,9 hPa 0,0 l/m 2 min 0 min 4,9 UV-I 991 W/m 23,0 km/h (4 Bft)
25.07.2014 14:24 21,1 C 22,2 C 80 % 1013,8 hPa 0,0 l/m 2 min 0 min 4,9 UV-I 985 W/m 23,0 km/h (4 Bft)
25.07.2014 14:26 21,1 C 21,7 C 79 % 1013,9 hPa 0,0 l/m 2 min 0 min 4,3 UV-I 976 W/m 27,2 km/h (4 Bft)
25.07.2014 14:28 21,0 C 21,7 C 80 % 1013,9 hPa 0,0 l/m 2 min 0 min 3,6 UV-I 976 W/m 25,1 km/h (4 Bft)
25.07.2014 14:30 21,0 C 21,7 C 80 % 1013,9 hPa 0,0 l/m 2 min 0 min 3,6 UV-I 631 W/m 25,1 km/h (4 Bft)
25.07.2014 14:32 21,1 C 21,7 C 80 % 1013,9 hPa 0,0 l/m 2 min 0 min 3,3 UV-I 535 W/m 25,1 km/h (4 Bft)
25.07.2014 14:34 21,0 C 21,7 C 80 % 1013,8 hPa 0,0 l/m 2 min 0 min 3,2 UV-I 519 W/m 25,1 km/h (4 Bft)
25.07.2014 14:36 21,0 C 21,7 C 81 % 1013,7 hPa 0,0 l/m 2 min 0 min 3,2 UV-I 491 W/m 25,1 km/h (4 Bft)
25.07.2014 14:38 21,1 C 21,7 C 79 % 1013,8 hPa 0,0 l/m 0 min 0 min 2,8 UV-I 379 W/m 27,2 km/h (4 Bft)
25.07.2014 14:40 20,9 C 21,1 C 80 % 1013,7 hPa 0,0 l/m 2 min 0 min 4,1 UV-I 528 W/m 18,8 km/h (3 Bft)
25.07.2014 14:42 20,9 C 21,1 C 80 % 1013,8 hPa 0,0 l/m 2 min 0 min 4,3 UV-I 863 W/m 25,1 km/h (4 Bft)
25.07.2014 14:44 21,0 C 21,7 C 80 % 1013,7 hPa 0,0 l/m 2 min 0 min 4,4 UV-I 854 W/m 23,0 km/h (4 Bft)
25.07.2014 14:46 21,2 C 21,7 C 79 % 1013,7 hPa 0,0 l/m 2 min 0 min 4,7 UV-I 809 W/m 29,3 km/h (5 Bft)
25.07.2014 14:48 21,3 C 22,2 C 79 % 1013,8 hPa 0,0 l/m 2 min 0 min 4,6 UV-I 750 W/m 25,1 km/h (4 Bft)
25.07.2014 14:50 21,5 C 22,2 C 79 % 1013,7 hPa 0,0 l/m 2 min 0 min 4,6 UV-I 815 W/m 20,9 km/h (4 Bft)
25.07.2014 14:52 21,6 C 21,7 C 78 % 1013,7 hPa 0,0 l/m 2 min 0 min 4,6 UV-I 813 W/m 25,1 km/h (4 Bft)
25.07.2014 14:54 21,5 C 21,7 C 79 % 1013,6 hPa 0,0 l/m 2 min 0 min 4,6 UV-I 806 W/m 20,9 km/h (4 Bft)
25.07.2014 14:56 21,7 C 22,2 C 80 % 1013,6 hPa 0,0 l/m 2 min 0 min 4,5 UV-I 783 W/m 27,2 km/h (4 Bft)
25.07.2014 14:58 21,7 C 22,2 C 78 % 1013,6 hPa 0,0 l/m 2 min 0 min 4,6 UV-I 828 W/m 27,2 km/h (4 Bft)
25.07.2014 15:00 21,7 C 22,2 C 79 % 1013,6 hPa 0,0 l/m 2 min 0 min 4,1 UV-I 733 W/m 27,2 km/h (4 Bft)
25.07.2014 15:02 21,6 C 21,7 C 78 % 1013,6 hPa 0,0 l/m 2 min 0 min 4,1 UV-I 547 W/m 27,2 km/h (4 Bft)
25.07.2014 15:04 21,3 C 21,7 C 78 % 1013,5 hPa 0,0 l/m 2 min 0 min 3,5 UV-I 495 W/m 16,7 km/h (3 Bft)
25.07.2014 15:06 21,3 C 21,7 C 79 % 1013,5 hPa 0,0 l/m 2 min 0 min 4,3 UV-I 605 W/m 25,1 km/h (4 Bft)
25.07.2014 15:08 21,3 C 21,7 C 79 % 1013,5 hPa 0,0 l/m 2 min 0 min 4,1 UV-I 750 W/m 23,0 km/h (4 Bft)
25.07.2014 15:10 21,5 C 21,7 C 78 % 1013,5 hPa 0,0 l/m 2 min 0 min 4,2 UV-I 714 W/m 23,0 km/h (4 Bft)
25.07.2014 15:12 21,4 C 21,7 C 78 % 1013,5 hPa 0,0 l/m 2 min 0 min 4,1 UV-I 723 W/m 23,0 km/h (4 Bft)
25.07.2014 15:14 21,3 C 21,1 C 78 % 1013,5 hPa 0,0 l/m 2 min 0 min 4,1 UV-I 706 W/m 29,3 km/h (5 Bft)
25.07.2014 15:16 21,3 C 21,1 C 79 % 1013,5 hPa 0,0 l/m 2 min 0 min 4,1 UV-I 734 W/m 29,3 km/h (5 Bft)
25.07.2014 15:18 21,4 C 21,7 C 78 % 1013,5 hPa 0,0 l/m 2 min 0 min 4,1 UV-I 736 W/m 29,3 km/h (5 Bft)
25.07.2014 15:20 21,7 C 21,7 C 79 % 1013,6 hPa 0,0 l/m 2 min 0 min 4,0 UV-I 726 W/m 23,0 km/h (4 Bft)
25.07.2014 15:22 21,7 C 21,7 C 77 % 1013,5 hPa 0,0 l/m 2 min 0 min 4,0 UV-I 716 W/m 35,6 km/h (5 Bft)
25.07.2014 15:24 21,6 C 21,7 C 77 % 1013,5 hPa 0,0 l/m 2 min 0 min 4,0 UV-I 727 W/m 27,2 km/h (4 Bft)
25.07.2014 15:26 21,7 C 21,7 C 78 % 1013,5 hPa 0,0 l/m 2 min 0 min 4,0 UV-I 721 W/m 29,3 km/h (5 Bft)
25.07.2014 15:28 21,6 C 21,1 C 77 % 1013,5 hPa 0,0 l/m 2 min 0 min 3,9 UV-I 708 W/m 31,4 km/h (5 Bft)
25.07.2014 15:30 21,5 C 21,1 C 77 % 1013,4 hPa 0,0 l/m 2 min 0 min 3,8 UV-I 707 W/m 31,4 km/h (5 Bft)
25.07.2014 15:32 21,7 C 21,7 C 78 % 1013,4 hPa 0,0 l/m 2 min 0 min 3,8 UV-I 709 W/m 23,0 km/h (4 Bft)
25.07.2014 15:34 21,9 C 21,7 C 77 % 1013,5 hPa 0,0 l/m 2 min 0 min 3,8 UV-I 705 W/m 25,1 km/h (4 Bft)
25.07.2014 15:36 21,8 C 21,7 C 77 % 1013,3 hPa 0,0 l/m 2 min 0 min 3,7 UV-I 698 W/m 29,3 km/h (5 Bft)
25.07.2014 15:38 21,6 C 21,7 C 77 % 1013,3 hPa 0,0 l/m 2 min 0 min 3,7 UV-I 692 W/m 23,0 km/h (4 Bft)
25.07.2014 15:40 21,5 C 21,7 C 78 % 1013,3 hPa 0,0 l/m 2 min 0 min 3,7 UV-I 696 W/m 20,9 km/h (4 Bft)
25.07.2014 15:42 21,6 C 21,7 C 78 % 1013,3 hPa 0,0 l/m 2 min 0 min 3,6 UV-I 680 W/m 29,3 km/h (5 Bft)
25.07.2014 15:44 21,4 C 21,1 C 78 % 1013,3 hPa 0,0 l/m 2 min 0 min 3,5 UV-I 683 W/m 27,2 km/h (4 Bft)
25.07.2014 15:46 21,3 C 21,7 C 79 % 1013,3 hPa 0,0 l/m 2 min 0 min 3,5 UV-I 685 W/m 18,8 km/h (3 Bft)
25.07.2014 15:48 21,3 C 21,7 C 80 % 1013,4 hPa 0,0 l/m 2 min 0 min 3,5 UV-I 683 W/m 20,9 km/h (4 Bft)
25.07.2014 15:50 21,4 C 21,7 C 80 % 1013,4 hPa 0,0 l/m 2 min 0 min 3,3 UV-I 629 W/m 18,8 km/h (3 Bft)
25.07.2014 15:52 21,6 C 21,7 C 79 % 1013,3 hPa 0,0 l/m 2 min 0 min 3,3 UV-I 604 W/m 20,9 km/h (4 Bft)
25.07.2014 15:54 21,8 C 22,2 C 79 % 1013,3 hPa 0,0 l/m 2 min 0 min 3,3 UV-I 668 W/m 27,2 km/h (4 Bft)
25.07.2014 15:56 21,7 C 21,7 C 78 % 1013,4 hPa 0,0 l/m 2 min 0 min 3,3 UV-I 681 W/m 27,2 km/h (4 Bft)
25.07.2014 15:58 21,6 C 21,7 C 78 % 1013,4 hPa 0,0 l/m 2 min 0 min 3,3 UV-I 668 W/m 25,1 km/h (4 Bft)
25.07.2014 16:00 21,4 C 21,7 C 78 % 1013,4 hPa 0,0 l/m 2 min 0 min 3,2 UV-I 663 W/m 25,1 km/h (4 Bft)
25.07.2014 16:02 21,3 C 21,7 C 79 % 1013,4 hPa 0,0 l/m 2 min 0 min 3,1 UV-I 663 W/m 20,9 km/h (4 Bft)
25.07.2014 16:04 21,3 C 21,7 C 78 % 1013,3 hPa 0,0 l/m 2 min 0 min 3,1 UV-I 664 W/m 23,0 km/h (4 Bft)
25.07.2014 16:06 21,5 C 21,7 C 79 % 1013,3 hPa 0,0 l/m 2 min 0 min 3,0 UV-I 635 W/m 18,8 km/h (3 Bft)
25.07.2014 16:08 21,6 C 21,7 C 78 % 1013,4 hPa 0,0 l/m 2 min 0 min 2,4 UV-I 666 W/m 29,3 km/h (5 Bft)
25.07.2014 16:10 21,6 C 21,7 C 80 % 1013,4 hPa 0,0 l/m 2 min 0 min 2,7 UV-I 480 W/m 23,0 km/h (4 Bft)
25.07.2014 16:12 21,7 C 21,7 C 78 % 1013,4 hPa 0,0 l/m 2 min 0 min 2,8 UV-I 736 W/m 31,4 km/h (5 Bft)
25.07.2014 16:14 21,4 C 21,1 C 77 % 1013,5 hPa 0,0 l/m 2 min 0 min 1,9 UV-I 372 W/m 25,1 km/h (4 Bft)
25.07.2014 16:16 21,3 C 21,1 C 78 % 1013,4 hPa 0,0 l/m 2 min 0 min 2,8 UV-I 424 W/m 23,0 km/h (4 Bft)
25.07.2014 16:18 21,2 C 21,7 C 78 % 1013,5 hPa 0,0 l/m 2 min 0 min 2,8 UV-I 643 W/m 27,2 km/h (4 Bft)
25.07.2014 16:20 21,1 C 21,7 C 78 % 1013,5 hPa 0,0 l/m 2 min 0 min 2,1 UV-I 643 W/m 23,0 km/h (4 Bft)
25.07.2014 16:22 21,0 C 22,8 C 79 % 1013,5 hPa 0,0 l/m 2 min 0 min 2,7 UV-I 631 W/m 27,2 km/h (4 Bft)
25.07.2014 16:24 21,1 C 23,9 C 80 % 1013,5 hPa 0,0 l/m 2 min 0 min 2,7 UV-I 610 W/m 23,0 km/h (4 Bft)
25.07.2014 16:26 21,2 C 24,4 C 79 % 1013,5 hPa 0,0 l/m 2 min 0 min 2,6 UV-I 621 W/m 23,0 km/h (4 Bft)
25.07.2014 16:28 21,3 C 25,0 C 79 % 1013,5 hPa 0,0 l/m 2 min 0 min 2,6 UV-I 648 W/m 29,3 km/h (5 Bft)
25.07.2014 16:30 21,5 C 26,1 C 79 % 1013,5 hPa 0,0 l/m 2 min 0 min 2,6 UV-I 667 W/m 20,9 km/h (4 Bft)
25.07.2014 16:32 21,5 C 25,0 C 78 % 1013,5 hPa 0,0 l/m 2 min 0 min 2,3 UV-I 602 W/m 27,2 km/h (4 Bft)
25.07.2014 16:34 21,4 C 23,9 C 78 % 1013,5 hPa 0,0 l/m 2 min 0 min 2,0 UV-I 442 W/m 25,1 km/h (4 Bft)
25.07.2014 16:36 21,2 C 23,3 C 79 % 1013,4 hPa 0,0 l/m 0 min 0 min 2,0 UV-I 305 W/m 20,9 km/h (4 Bft)
25.07.2014 16:38 21,1 C 23,3 C 79 % 1013,5 hPa 0,0 l/m 0 min 0 min 2,1 UV-I 299 W/m 23,0 km/h (4 Bft)
25.07.2014 16:40 21,1 C 24,4 C 80 % 1013,4 hPa 0,0 l/m 2 min 0 min 2,2 UV-I 602 W/m 16,7 km/h (3 Bft)
25.07.2014 16:42 21,2 C 25,0 C 80 % 1013,4 hPa 0,0 l/m 2 min 0 min 2,2 UV-I 634 W/m 18,8 km/h (3 Bft)
25.07.2014 16:44 21,3 C 25,6 C 79 % 1013,3 hPa 0,0 l/m 2 min 0 min 2,3 UV-I 694 W/m 20,9 km/h (4 Bft)
25.07.2014 16:46 21,3 C 25,0 C 80 % 1013,2 hPa 0,0 l/m 2 min 0 min 2,0 UV-I 706 W/m 18,8 km/h (3 Bft)
25.07.2014 16:48 21,4 C 23,9 C 80 % 1013,2 hPa 0,0 l/m 2 min 0 min 1,4 UV-I 493 W/m 23,0 km/h (4 Bft)
25.07.2014 16:50 21,3 C 23,3 C 79 % 1013,3 hPa 0,0 l/m 0 min 0 min 1,6 UV-I 304 W/m 20,9 km/h (4 Bft)
25.07.2014 16:52 21,1 C 23,9 C 80 % 1013,2 hPa 0,0 l/m 2 min 0 min 1,7 UV-I 518 W/m 12,6 km/h (3 Bft)
25.07.2014 16:54 21,2 C 23,3 C 80 % 1013,1 hPa 0,0 l/m 2 min 0 min 1,8 UV-I 592 W/m 25,1 km/h (4 Bft)
25.07.2014 16:56 21,3 C 23,9 C 80 % 1013,2 hPa 0,0 l/m 2 min 0 min 1,8 UV-I 369 W/m 25,1 km/h (4 Bft)
25.07.2014 16:58 21,4 C 23,3 C 80 % 1013,2 hPa 0,0 l/m 2 min 0 min 1,8 UV-I 624 W/m 20,9 km/h (4 Bft)
25.07.2014 17:00 21,4 C 22,8 C 80 % 1013,2 hPa 0,0 l/m 2 min 0 min 1,6 UV-I 577 W/m 23,0 km/h (4 Bft)
25.07.2014 17:02 21,4 C 21,7 C 80 % 1013,1 hPa 0,0 l/m 0 min 0 min 0,8 UV-I 243 W/m 18,8 km/h (3 Bft)
25.07.2014 17:04 21,3 C 21,1 C 80 % 1013,0 hPa 0,0 l/m 0 min 0 min 0,8 UV-I 137 W/m 20,9 km/h (4 Bft)
25.07.2014 17:06 21,2 C 20,6 C 80 % 1013,0 hPa 0,0 l/m 0 min 0 min 0,9 UV-I 130 W/m 23,0 km/h (4 Bft)
25.07.2014 17:08 21,0 C 20,6 C 80 % 1013,0 hPa 0,0 l/m 0 min 0 min 0,9 UV-I 162 W/m 25,1 km/h (4 Bft)
25.07.2014 17:10 20,8 C 20,6 C 80 % 1013,0 hPa 0,0 l/m 0 min 0 min 1,3 UV-I 183 W/m 20,9 km/h (4 Bft)
25.07.2014 17:12 21,0 C 20,6 C 81 % 1013,0 hPa 0,0 l/m 2 min 0 min 1,5 UV-I 442 W/m 16,7 km/h (3 Bft)
25.07.2014 17:14 21,1 C 21,1 C 80 % 1013,0 hPa 0,0 l/m 2 min 0 min 1,0 UV-I 297 W/m 23,0 km/h (4 Bft)
25.07.2014 17:16 21,2 C 21,1 C 80 % 1013,0 hPa 0,0 l/m 0 min 0 min 1,1 UV-I 270 W/m 23,0 km/h (4 Bft)
25.07.2014 17:18 21,2 C 21,1 C 80 % 1013,0 hPa 0,0 l/m 2 min 0 min 1,2 UV-I 489 W/m 20,9 km/h (4 Bft)
25.07.2014 17:20 21,2 C 21,1 C 80 % 1013,0 hPa 0,0 l/m 2 min 0 min 1,0 UV-I 426 W/m 16,7 km/h (3 Bft)
25.07.2014 17:22 21,2 C 21,1 C 80 % 1013,0 hPa 0,0 l/m 2 min 0 min 0,8 UV-I 351 W/m 16,7 km/h (3 Bft)
25.07.2014 17:24 21,2 C 21,1 C 79 % 1013,0 hPa 0,0 l/m 2 min 0 min 0,8 UV-I 302 W/m 20,9 km/h (4 Bft)
25.07.2014 17:26 21,1 C 20,6 C 79 % 1012,9 hPa 0,0 l/m 2 min 0 min 0,8 UV-I 360 W/m 27,2 km/h (4 Bft)
25.07.2014 17:28 21,1 C 20,6 C 79 % 1013,0 hPa 0,0 l/m 2 min 0 min 0,8 UV-I 339 W/m 18,8 km/h (3 Bft)
25.07.2014 17:30 21,1 C 20,6 C 80 % 1012,9 hPa 0,0 l/m 2 min 0 min 0,8 UV-I 444 W/m 20,9 km/h (4 Bft)
25.07.2014 17:32 21,3 C 20,6 C 79 % 1012,9 hPa 0,0 l/m 2 min 0 min 0,8 UV-I 475 W/m 23,0 km/h (4 Bft)
25.07.2014 17:34 21,3 C 20,6 C 78 % 1012,8 hPa 0,0 l/m 2 min 0 min 0,8 UV-I 281 W/m 18,8 km/h (3 Bft)
25.07.2014 17:36 21,2 C 20,6 C 78 % 1012,8 hPa 0,0 l/m 2 min 0 min 0,8 UV-I 286 W/m 23,0 km/h (4 Bft)
25.07.2014 17:38 21,3 C 20,6 C 78 % 1012,9 hPa 0,0 l/m 2 min 0 min 0,7 UV-I 433 W/m 20,9 km/h (4 Bft)
25.07.2014 17:40 21,2 C 20,6 C 78 % 1012,8 hPa 0,0 l/m 2 min 0 min 0,7 UV-I 451 W/m 23,0 km/h (4 Bft)
25.07.2014 17:42 21,2 C 20,6 C 79 % 1012,8 hPa 0,0 l/m 2 min 0 min 0,7 UV-I 455 W/m 14,6 km/h (3 Bft)
25.07.2014 17:44 21,3 C 20,6 C 79 % 1012,8 hPa 0,0 l/m 2 min 0 min 0,7 UV-I 453 W/m 16,7 km/h (3 Bft)
25.07.2014 17:46 21,3 C 20,6 C 79 % 1012,8 hPa 0,0 l/m 2 min 0 min 0,7 UV-I 453 W/m 20,9 km/h (4 Bft)
25.07.2014 17:48 21,6 C 20,6 C 78 % 1012,8 hPa 0,0 l/m 2 min 0 min 0,7 UV-I 453 W/m 23,0 km/h (4 Bft)
25.07.2014 17:50 21,6 C 20,6 C 78 % 1012,8 hPa 0,0 l/m 2 min 0 min 0,6 UV-I 458 W/m 18,8 km/h (3 Bft)
25.07.2014 17:52 21,8 C 21,1 C 79 % 1012,8 hPa 0,0 l/m 2 min 0 min 0,6 UV-I 457 W/m 18,8 km/h (3 Bft)
25.07.2014 17:54 21,7 C 21,1 C 78 % 1012,8 hPa 0,0 l/m 2 min 0 min 0,6 UV-I 457 W/m 25,1 km/h (4 Bft)
25.07.2014 17:56 21,7 C 20,6 C 78 % 1012,8 hPa 0,0 l/m 2 min 0 min 0,6 UV-I 470 W/m 20,9 km/h (4 Bft)
25.07.2014 17:58 21,7 C 21,1 C 79 % 1012,8 hPa 0,0 l/m 2 min 0 min 0,6 UV-I 458 W/m 20,9 km/h (4 Bft)
25.07.2014 18:00 21,8 C 21,1 C 77 % 1012,8 hPa 0,0 l/m 2 min 0 min 0,5 UV-I 438 W/m 18,8 km/h (3 Bft)
25.07.2014 18:02 21,9 C 21,1 C 78 % 1012,8 hPa 0,0 l/m 2 min 0 min 0,5 UV-I 437 W/m 16,7 km/h (3 Bft)
25.07.2014 18:06 21,8 C 21,1 C 76 % 1012,8 hPa 0,0 l/m 2 min 0 min 0,5 UV-I 433 W/m 20,9 km/h (4 Bft)
25.07.2014 18:08 21,7 C 20,6 C 77 % 1012,8 hPa 0,0 l/m 2 min 0 min 0,1 UV-I 281 W/m 18,8 km/h (3 Bft)
25.07.2014 18:10 21,6 C 20,6 C 77 % 1012,8 hPa 0,0 l/m 0 min 0 min 0,0 UV-I 163 W/m 16,7 km/h (3 Bft)
25.07.2014 18:12 21,5 C 20,6 C 77 % 1012,8 hPa 0,0 l/m 2 min 0 min 0,0 UV-I 378 W/m 16,7 km/h (3 Bft)
25.07.2014 18:14 21,5 C 21,1 C 77 % 1012,7 hPa 0,0 l/m 2 min 0 min 0,0 UV-I 448 W/m 18,8 km/h (3 Bft)
25.07.2014 18:16 21,5 C 21,1 C 77 % 1012,7 hPa 0,0 l/m 2 min 0 min 0,0 UV-I 443 W/m 14,6 km/h (3 Bft)
25.07.2014 18:18 21,5 C 21,1 C 78 % 1012,7 hPa 0,0 l/m 2 min 0 min 0,0 UV-I 263 W/m 16,7 km/h (3 Bft)
25.07.2014 18:20 21,5 C 21,1 C 77 % 1012,8 hPa 0,0 l/m 2 min 0 min 0,0 UV-I 256 W/m 16,7 km/h (3 Bft)
25.07.2014 18:22 21,6 C 21,1 C 78 % 1012,8 hPa 0,0 l/m 2 min 0 min 0,0 UV-I 373 W/m 16,7 km/h (3 Bft)
25.07.2014 18:24 21,7 C 21,1 C 78 % 1012,8 hPa 0,0 l/m 2 min 0 min 0,0 UV-I 316 W/m 20,9 km/h (4 Bft)
25.07.2014 18:26 21,7 C 21,1 C 77 % 1012,8 hPa 0,0 l/m 0 min 0 min 0,0 UV-I 167 W/m 18,8 km/h (3 Bft)
25.07.2014 18:28 21,6 C 20,6 C 78 % 1012,7 hPa 0,0 l/m 0 min 0 min 0,0 UV-I 170 W/m 18,8 km/h (3 Bft)
25.07.2014 18:30 21,6 C 20,6 C 78 % 1012,7 hPa 0,0 l/m 2 min 0 min 0,0 UV-I 242 W/m 20,9 km/h (4 Bft)
25.07.2014 18:32 21,4 C 20,6 C 77 % 1012,8 hPa 0,0 l/m 0 min 0 min 0,0 UV-I 167 W/m 23,0 km/h (4 Bft)
25.07.2014 18:34 21,3 C 20,6 C 78 % 1012,9 hPa 0,0 l/m 0 min 0 min 0,0 UV-I 178 W/m 23,0 km/h (4 Bft)
25.07.2014 18:36 21,3 C 20,6 C 79 % 1012,8 hPa 0,0 l/m 0 min 0 min 0,0 UV-I 194 W/m 20,9 km/h (4 Bft)
25.07.2014 18:38 21,2 C 20,6 C 79 % 1012,8 hPa 0,0 l/m 2 min 0 min 0,0 UV-I 217 W/m 20,9 km/h (4 Bft)
25.07.2014 18:40 21,2 C 20,6 C 79 % 1012,8 hPa 0,0 l/m 2 min 0 min 0,0 UV-I 250 W/m 16,7 km/h (3 Bft)
25.07.2014 18:42 21,1 C 20,6 C 79 % 1012,8 hPa 0,0 l/m 2 min 0 min 0,0 UV-I 278 W/m 23,0 km/h (4 Bft)
25.07.2014 18:44 21,2 C 20,6 C 79 % 1012,8 hPa 0,0 l/m 2 min 0 min 0,0 UV-I 346 W/m 23,0 km/h (4 Bft)
25.07.2014 18:46 21,2 C 20,6 C 79 % 1012,7 hPa 0,0 l/m 2 min 0 min 0,0 UV-I 339 W/m 16,7 km/h (3 Bft)
25.07.2014 18:48 21,3 C 21,1 C 79 % 1012,7 hPa 0,0 l/m 2 min 0 min 0,0 UV-I 333 W/m 16,7 km/h (3 Bft)
25.07.2014 18:50 21,6 C 21,1 C 79 % 1012,7 hPa 0,0 l/m 2 min 0 min 0,0 UV-I 285 W/m 18,8 km/h (3 Bft)
25.07.2014 18:52 21,7 C 21,1 C 79 % 1012,7 hPa 0,0 l/m 2 min 0 min 0,0 UV-I 237 W/m 12,6 km/h (3 Bft)
25.07.2014 18:54 21,6 C 21,1 C 78 % 1012,7 hPa 0,0 l/m 2 min 0 min 0,0 UV-I 275 W/m 25,1 km/h (4 Bft)
25.07.2014 18:56 21,5 C 20,6 C 79 % 1012,7 hPa 0,0 l/m 2 min 0 min 0,0 UV-I 280 W/m 18,8 km/h (3 Bft)
25.07.2014 18:58 21,4 C 20,6 C 79 % 1012,8 hPa 0,0 l/m 2 min 0 min 0,0 UV-I 263 W/m 20,9 km/h (4 Bft)
25.07.2014 19:00 21,3 C 20,6 C 79 % 1012,8 hPa 0,0 l/m 2 min 0 min 0,0 UV-I 253 W/m 20,9 km/h (4 Bft)
25.07.2014 19:02 21,2 C 20,6 C 79 % 1012,7 hPa 0,0 l/m 2 min 0 min 0,0 UV-I 248 W/m 10,5 km/h (2 Bft)
25.07.2014 19:04 21,2 C 20,6 C 80 % 1012,8 hPa 0,0 l/m 2 min 0 min 0,0 UV-I 235 W/m 18,8 km/h (3 Bft)
25.07.2014 19:06 21,2 C 20,0 C 80 % 1012,8 hPa 0,0 l/m 2 min 0 min 0,0 UV-I 222 W/m 23,0 km/h (4 Bft)
25.07.2014 19:08 21,2 C 20,0 C 79 % 1012,7 hPa 0,0 l/m 2 min 0 min 0,0 UV-I 221 W/m 16,7 km/h (3 Bft)
25.07.2014 19:10 21,1 C 20,0 C 80 % 1012,7 hPa 0,0 l/m 2 min 0 min 0,0 UV-I 218 W/m 16,7 km/h (3 Bft)
25.07.2014 19:12 21,1 C 20,0 C 80 % 1012,7 hPa 0,0 l/m 2 min 0 min 0,0 UV-I 216 W/m 12,6 km/h (3 Bft)
25.07.2014 19:14 21,1 C 20,0 C 80 % 1012,7 hPa 0,0 l/m 2 min 0 min 0,0 UV-I 213 W/m 18,8 km/h (3 Bft)
25.07.2014 19:16 21,1 C 20,0 C 80 % 1012,7 hPa 0,0 l/m 2 min 0 min 0,0 UV-I 208 W/m 18,8 km/h (3 Bft)
25.07.2014 19:18 21,1 C 20,0 C 79 % 1012,7 hPa 0,0 l/m 2 min 0 min 0,0 UV-I 198 W/m 14,6 km/h (3 Bft)
25.07.2014 19:20 21,1 C 20,0 C 79 % 1012,7 hPa 0,0 l/m 2 min 0 min 0,0 UV-I 191 W/m 14,6 km/h (3 Bft)
25.07.2014 19:22 21,1 C 20,0 C 80 % 1012,7 hPa 0,0 l/m 2 min 0 min 0,0 UV-I 185 W/m 10,5 km/h (2 Bft)
25.07.2014 19:24 21,1 C 20,0 C 79 % 1012,7 hPa 0,0 l/m 2 min 0 min 0,0 UV-I 182 W/m 18,8 km/h (3 Bft)
25.07.2014 19:26 21,0 C 20,0 C 79 % 1012,8 hPa 0,0 l/m 2 min 0 min 0,0 UV-I 179 W/m 18,8 km/h (3 Bft)
25.07.2014 19:28 21,0 C 20,0 C 79 % 1012,7 hPa 0,0 l/m 2 min 0 min 0,0 UV-I 170 W/m 16,7 km/h (3 Bft)
25.07.2014 19:30 21,0 C 20,0 C 79 % 1012,8 hPa 0,0 l/m 2 min 0 min 0,0 UV-I 164 W/m 12,6 km/h (3 Bft)
25.07.2014 19:32 21,0 C 20,0 C 79 % 1012,8 hPa 0,0 l/m 2 min 0 min 0,0 UV-I 165 W/m 16,7 km/h (3 Bft)
25.07.2014 19:34 21,0 C 20,0 C 79 % 1012,8 hPa 0,0 l/m 2 min 0 min 0,0 UV-I 164 W/m 16,7 km/h (3 Bft)
25.07.2014 19:36 21,1 C 20,0 C 79 % 1012,8 hPa 0,0 l/m 2 min 0 min 0,0 UV-I 157 W/m 16,7 km/h (3 Bft)
25.07.2014 19:38 21,1 C 20,0 C 79 % 1012,8 hPa 0,0 l/m 2 min 0 min 0,0 UV-I 155 W/m 14,6 km/h (3 Bft)
25.07.2014 19:40 21,1 C 20,0 C 79 % 1012,8 hPa 0,0 l/m 2 min 0 min 0,0 UV-I 156 W/m 16,7 km/h (3 Bft)
25.07.2014 19:42 21,1 C 20,0 C 79 % 1012,8 hPa 0,0 l/m 2 min 0 min 0,0 UV-I 164 W/m 14,6 km/h (3 Bft)
25.07.2014 19:44 21,1 C 20,0 C 79 % 1012,8 hPa 0,0 l/m 2 min 0 min 0,0 UV-I 172 W/m 16,7 km/h (3 Bft)
25.07.2014 19:46 21,1 C 20,6 C 80 % 1012,7 hPa 0,0 l/m 2 min 0 min 0,0 UV-I 176 W/m 18,8 km/h (3 Bft)
25.07.2014 19:48 21,1 C 20,6 C 80 % 1012,7 hPa 0,0 l/m 2 min 0 min 0,0 UV-I 163 W/m 10,5 km/h (2 Bft)
25.07.2014 19:50 21,2 C 20,0 C 80 % 1012,7 hPa 0,0 l/m 2 min 0 min 0,0 UV-I 148 W/m 12,6 km/h (3 Bft)
25.07.2014 19:52 21,1 C 20,0 C 80 % 1012,7 hPa 0,0 l/m 2 min 0 min 0,0 UV-I 125 W/m 16,7 km/h (3 Bft)
25.07.2014 19:54 21,1 C 20,0 C 80 % 1012,6 hPa 0,0 l/m 2 min 0 min 0,0 UV-I 118 W/m 12,6 km/h (3 Bft)
25.07.2014 19:56 21,0 C 20,0 C 80 % 1012,6 hPa 0,0 l/m 2 min 0 min 0,0 UV-I 120 W/m 14,6 km/h (3 Bft)
25.07.2014 19:58 21,0 C 20,0 C 80 % 1012,7 hPa 0,0 l/m 2 min 0 min 0,0 UV-I 120 W/m 10,5 km/h (2 Bft)
25.07.2014 20:00 20,9 C 20,0 C 80 % 1012,7 hPa 0,0 l/m 2 min 0 min 0,0 UV-I 117 W/m 18,8 km/h (3 Bft)
25.07.2014 20:02 20,9 C 20,0 C 81 % 1012,7 hPa 0,0 l/m 2 min 0 min 0,0 UV-I 109 W/m 14,6 km/h (3 Bft)
25.07.2014 20:04 20,9 C 20,0 C 80 % 1012,6 hPa 0,0 l/m 2 min 0 min 0,0 UV-I 101 W/m 18,8 km/h (3 Bft)
25.07.2014 20:06 20,9 C 20,0 C 80 % 1012,6 hPa 0,0 l/m 2 min 0 min 0,0 UV-I 97 W/m 12,6 km/h (3 Bft)
25.07.2014 20:08 20,9 C 20,0 C 80 % 1012,6 hPa 0,0 l/m 2 min 0 min 0,0 UV-I 96 W/m 16,7 km/h (3 Bft)
25.07.2014 20:10 20,9 C 20,0 C 81 % 1012,6 hPa 0,0 l/m 2 min 0 min 0,0 UV-I 95 W/m 10,5 km/h (2 Bft)
25.07.2014 20:12 20,8 C 20,0 C 81 % 1012,6 hPa 0,0 l/m 2 min 0 min 0,0 UV-I 93 W/m 12,6 km/h (3 Bft)
25.07.2014 20:14 20,8 C 19,4 C 81 % 1012,6 hPa 0,0 l/m 2 min 0 min 0,0 UV-I 89 W/m 12,6 km/h (3 Bft)
25.07.2014 20:16 20,8 C 20,0 C 81 % 1012,6 hPa 0,0 l/m 2 min 0 min 0,0 UV-I 85 W/m 12,6 km/h (3 Bft)
25.07.2014 20:18 20,8 C 20,0 C 81 % 1012,6 hPa 0,0 l/m 2 min 0 min 0,0 UV-I 84 W/m 12,6 km/h (3 Bft)
25.07.2014 20:20 20,8 C 20,0 C 81 % 1012,6 hPa 0,0 l/m 2 min 0 min 0,0 UV-I 79 W/m 12,6 km/h (3 Bft)
25.07.2014 20:22 20,8 C 20,0 C 81 % 1012,6 hPa 0,0 l/m 0 min 0 min 0,0 UV-I 71 W/m 10,5 km/h (2 Bft)
25.07.2014 20:24 20,8 C 19,4 C 81 % 1012,6 hPa 0,0 l/m 0 min 0 min 0,0 UV-I 65 W/m 12,6 km/h (3 Bft)
25.07.2014 20:26 20,8 C 19,4 C 81 % 1012,6 hPa 0,0 l/m 0 min 0 min 0,0 UV-I 62 W/m 16,7 km/h (3 Bft)
25.07.2014 20:28 20,7 C 19,4 C 81 % 1012,5 hPa 0,0 l/m 0 min 0 min 0,0 UV-I 63 W/m 14,6 km/h (3 Bft)
25.07.2014 20:30 20,7 C 19,4 C 81 % 1012,5 hPa 0,0 l/m 2 min 0 min 0,0 UV-I 68 W/m 14,6 km/h (3 Bft)
25.07.2014 20:32 20,6 C 19,4 C 81 % 1012,6 hPa 0,0 l/m 2 min 0 min 0,0 UV-I 72 W/m 10,5 km/h (2 Bft)
25.07.2014 20:34 20,6 C 19,4 C 81 % 1012,5 hPa 0,0 l/m 2 min 0 min 0,0 UV-I 75 W/m 12,6 km/h (3 Bft)
25.07.2014 20:36 20,6 C 19,4 C 81 % 1012,5 hPa 0,0 l/m 2 min 0 min 0,0 UV-I 70 W/m 8,4 km/h (2 Bft)
25.07.2014 20:38 20,6 C 19,4 C 81 % 1012,6 hPa 0,0 l/m 2 min 0 min 0,0 UV-I 61 W/m 10,5 km/h (2 Bft)
25.07.2014 20:40 20,6 C 19,4 C 81 % 1012,6 hPa 0,0 l/m 0 min 0 min 0,0 UV-I 49 W/m 12,6 km/h (3 Bft)
25.07.2014 20:42 20,6 C 19,4 C 81 % 1012,6 hPa 0,0 l/m 0 min 0 min 0,0 UV-I 36 W/m 10,5 km/h (2 Bft)
25.07.2014 20:44 20,6 C 19,4 C 81 % 1012,7 hPa 0,0 l/m 0 min 0 min 0,0 UV-I 30 W/m 14,6 km/h (3 Bft)
25.07.2014 20:46 20,6 C 19,4 C 82 % 1012,7 hPa 0,0 l/m 0 min 0 min 0,0 UV-I 26 W/m 10,5 km/h (2 Bft)
25.07.2014 20:48 20,5 C 19,4 C 82 % 1012,7 hPa 0,0 l/m 0 min 0 min 0,0 UV-I 24 W/m 14,6 km/h (3 Bft)
25.07.2014 20:50 20,4 C 19,4 C 81 % 1012,7 hPa 0,0 l/m 0 min 0 min 0,0 UV-I 21 W/m 14,6 km/h (3 Bft)
25.07.2014 20:52 20,4 C 19,4 C 82 % 1012,7 hPa 0,0 l/m 0 min 0 min 0,0 UV-I 19 W/m 12,6 km/h (3 Bft)
25.07.2014 20:54 20,4 C 19,4 C 82 % 1012,7 hPa 0,0 l/m 0 min 0 min 0,0 UV-I 18 W/m 18,8 km/h (3 Bft)
25.07.2014 20:56 20,3 C 19,4 C 82 % 1012,7 hPa 0,0 l/m 0 min 0 min 0,0 UV-I 18 W/m 12,6 km/h (3 Bft)
25.07.2014 20:58 20,3 C 18,9 C 82 % 1012,7 hPa 0,0 l/m 0 min 0 min 0,0 UV-I 17 W/m 14,6 km/h (3 Bft)
25.07.2014 21:00 20,3 C 18,9 C 82 % 1012,7 hPa 0,0 l/m 0 min 0 min 0,0 UV-I 15 W/m 12,6 km/h (3 Bft)
25.07.2014 21:02 20,2 C 18,9 C 82 % 1012,7 hPa 0,0 l/m 0 min 0 min 0,0 UV-I 14 W/m 12,6 km/h (3 Bft)
25.07.2014 21:04 20,2 C 18,9 C 82 % 1012,7 hPa 0,0 l/m 0 min 0 min 0,0 UV-I 13 W/m 8,4 km/h (2 Bft)
25.07.2014 21:06 20,2 C 18,9 C 83 % 1012,8 hPa 0,0 l/m 0 min 0 min 0,0 UV-I 12 W/m 12,6 km/h (3 Bft)
25.07.2014 21:08 20,1 C 18,9 C 83 % 1012,8 hPa 0,0 l/m 0 min 0 min 0,0 UV-I 12 W/m 12,6 km/h (3 Bft)
25.07.2014 21:10 20,1 C 18,9 C 83 % 1012,8 hPa 0,0 l/m 0 min 0 min 0,0 UV-I 11 W/m 12,6 km/h (3 Bft)
25.07.2014 21:12 20,0 C 18,9 C 83 % 1012,8 hPa 0,0 l/m 0 min 0 min 0,0 UV-I 11 W/m 10,5 km/h (2 Bft)
25.07.2014 21:14 19,9 C 18,9 C 83 % 1012,9 hPa 0,0 l/m 0 min 0 min 0,0 UV-I 9 W/m 10,5 km/h (2 Bft)
25.07.2014 21:16 19,9 C 18,9 C 83 % 1012,8 hPa 0,0 l/m 0 min 0 min 0,0 UV-I 8 W/m 8,4 km/h (2 Bft)
25.07.2014 21:18 19,9 C 18,9 C 83 % 1012,9 hPa 0,0 l/m 0 min 0 min 0,0 UV-I 7 W/m 8,4 km/h (2 Bft)
25.07.2014 21:20 19,8 C 18,9 C 84 % 1012,9 hPa 0,0 l/m 0 min 0 min 0,0 UV-I 8 W/m 8,4 km/h (2 Bft)
25.07.2014 21:22 19,8 C 18,9 C 84 % 1012,9 hPa 0,0 l/m 0 min 0 min 0,0 UV-I 8 W/m 10,5 km/h (2 Bft)
25.07.2014 21:24 19,8 C 18,9 C 84 % 1012,9 hPa 0,0 l/m 0 min 0 min 0,0 UV-I 7 W/m 10,5 km/h (2 Bft)
25.07.2014 21:26 19,8 C 18,3 C 84 % 1012,9 hPa 0,0 l/m 0 min 0 min 0,0 UV-I 5 W/m 10,5 km/h (2 Bft)
25.07.2014 21:28 19,8 C 18,3 C 84 % 1013,0 hPa 0,0 l/m 0 min 0 min 0,0 UV-I 5 W/m 6,3 km/h (2 Bft)
25.07.2014 21:30 19,7 C 18,3 C 85 % 1013,0 hPa 0,0 l/m 0 min 0 min 0,0 UV-I 5 W/m 8,4 km/h (2 Bft)
25.07.2014 21:32 19,7 C 18,3 C 85 % 1013,0 hPa 0,0 l/m 0 min 0 min 0,0 UV-I 1 W/m 12,6 km/h (3 Bft)
25.07.2014 21:34 19,7 C 18,3 C 85 % 1013,0 hPa 0,0 l/m 0 min 0 min 0,0 UV-I 0 W/m 8,4 km/h (2 Bft)
25.07.2014 21:36 19,6 C 18,3 C 85 % 1012,9 hPa 0,0 l/m 0 min 0 min 0,0 UV-I 0 W/m 8,4 km/h (2 Bft)
25.07.2014 21:38 19,6 C 18,3 C 85 % 1013,0 hPa 0,0 l/m 0 min 0 min 0,0 UV-I 0 W/m 8,4 km/h (2 Bft)
25.07.2014 21:40 19,5 C 18,3 C 85 % 1013,0 hPa 0,0 l/m 0 min 0 min 0,0 UV-I 0 W/m 12,6 km/h (3 Bft)
25.07.2014 21:42 19,4 C 18,3 C 85 % 1013,0 hPa 0,0 l/m 0 min 0 min 0,0 UV-I 0 W/m 10,5 km/h (2 Bft)
25.07.2014 21:44 19,4 C 17,8 C 86 % 1013,0 hPa 0,0 l/m 0 min 0 min 0,0 UV-I 0 W/m 8,4 km/h (2 Bft)
25.07.2014 21:46 19,3 C 17,8 C 86 % 1013,0 hPa 0,0 l/m 0 min 0 min 0,0 UV-I 0 W/m 6,3 km/h (2 Bft)
25.07.2014 21:48 19,3 C 17,8 C 86 % 1013,0 hPa 0,0 l/m 0 min 0 min 0,0 UV-I 0 W/m 6,3 km/h (2 Bft)
25.07.2014 21:50 19,2 C 17,8 C 86 % 1013,0 hPa 0,0 l/m 0 min 0 min 0,0 UV-I 0 W/m 6,3 km/h (2 Bft)
25.07.2014 21:52 19,2 C 17,8 C 86 % 1013,0 hPa 0,0 l/m 0 min 0 min 0,0 UV-I 0 W/m 10,5 km/h (2 Bft)
25.07.2014 21:54 19,1 C 17,8 C 87 % 1013,0 hPa 0,0 l/m 0 min 0 min 0,0 UV-I 0 W/m 2,1 km/h (1 Bft)
25.07.2014 21:56 19,1 C 17,8 C 87 % 1013,0 hPa 0,0 l/m 0 min 0 min 0,0 UV-I 0 W/m 0,0 km/h (0 Bft)
25.07.2014 21:58 19,1 C 17,8 C 87 % 1013,0 hPa 0,0 l/m 0 min 0 min 0,0 UV-I 0 W/m 2,1 km/h (1 Bft)
25.07.2014 22:00 19,0 C 17,8 C 88 % 1013,0 hPa 0,0 l/m 0 min 0 min 0,0 UV-I 0 W/m 0,0 km/h (0 Bft)
25.07.2014 22:02 18,9 C 17,8 C 88 % 1013,1 hPa 0,0 l/m 0 min 0 min 0,0 UV-I 0 W/m 0,0 km/h (0 Bft)
25.07.2014 22:04 18,9 C 17,8 C 88 % 1013,0 hPa 0,0 l/m 0 min 0 min 0,0 UV-I 0 W/m 0,0 km/h (0 Bft)
25.07.2014 22:06 18,9 C 17,8 C 88 % 1013,0 hPa 0,0 l/m 0 min 0 min 0,0 UV-I 0 W/m 0,0 km/h (0 Bft)
25.07.2014 22:08 18,8 C 17,8 C 88 % 1013,0 hPa 0,0 l/m 0 min 0 min 0,0 UV-I 0 W/m 0,0 km/h (0 Bft)
25.07.2014 22:10 18,8 C 17,2 C 88 % 1013,0 hPa 0,0 l/m 0 min 0 min 0,0 UV-I 0 W/m 0,0 km/h (0 Bft)
25.07.2014 22:12 18,8 C 17,2 C 88 % 1013,0 hPa 0,0 l/m 0 min 0 min 0,0 UV-I 0 W/m 0,0 km/h (0 Bft)
25.07.2014 22:14 18,7 C 17,2 C 88 % 1013,0 hPa 0,0 l/m 0 min 0 min 0,0 UV-I 0 W/m 0,0 km/h (0 Bft)
25.07.2014 22:16 18,7 C 17,2 C 88 % 1013,0 hPa 0,0 l/m 0 min 0 min 0,0 UV-I 0 W/m 0,0 km/h (0 Bft)
25.07.2014 22:18 18,7 C 17,2 C 89 % 1013,0 hPa 0,0 l/m 0 min 0 min 0,0 UV-I 0 W/m 0,0 km/h (0 Bft)
25.07.2014 22:20 18,7 C 17,2 C 89 % 1013,0 hPa 0,0 l/m 0 min 0 min 0,0 UV-I 0 W/m 8,4 km/h (2 Bft)
25.07.2014 22:22 18,7 C 17,2 C 89 % 1013,0 hPa 0,0 l/m 0 min 0 min 0,0 UV-I 0 W/m 0,0 km/h (0 Bft)
25.07.2014 22:24 18,6 C 17,2 C 89 % 1013,0 hPa 0,0 l/m 0 min 0 min 0,0 UV-I 0 W/m 6,3 km/h (2 Bft)
25.07.2014 22:26 18,6 C 17,2 C 89 % 1013,0 hPa 0,0 l/m 0 min 0 min 0,0 UV-I 0 W/m 8,4 km/h (2 Bft)
25.07.2014 22:28 18,6 C 17,2 C 89 % 1013,0 hPa 0,0 l/m 0 min 0 min 0,0 UV-I 0 W/m 0,0 km/h (0 Bft)
25.07.2014 22:30 18,5 C 17,2 C 89 % 1013,0 hPa 0,0 l/m 0 min 0 min 0,0 UV-I 0 W/m 0,0 km/h (0 Bft)
25.07.2014 22:32 18,4 C 17,2 C 89 % 1013,0 hPa 0,0 l/m 0 min 0 min 0,0 UV-I 0 W/m 0,0 km/h (0 Bft)
25.07.2014 22:34 18,4 C 17,2 C 89 % 1013,0 hPa 0,0 l/m 0 min 0 min 0,0 UV-I 0 W/m 0,0 km/h (0 Bft)
25.07.2014 22:36 18,3 C 17,2 C 90 % 1013,1 hPa 0,0 l/m 0 min 0 min 0,0 UV-I 0 W/m 0,0 km/h (0 Bft)
25.07.2014 22:38 18,3 C 16,7 C 90 % 1013,1 hPa 0,0 l/m 0 min 0 min 0,0 UV-I 0 W/m 6,3 km/h (2 Bft)
25.07.2014 22:40 18,2 C 16,7 C 90 % 1013,0 hPa 0,0 l/m 0 min 0 min 0,0 UV-I 0 W/m 2,1 km/h (1 Bft)
25.07.2014 22:42 18,2 C 16,7 C 90 % 1013,0 hPa 0,0 l/m 0 min 0 min 0,0 UV-I 0 W/m 6,3 km/h (2 Bft)
25.07.2014 22:44 18,1 C 16,7 C 90 % 1013,0 hPa 0,0 l/m 0 min 0 min 0,0 UV-I 0 W/m 0,0 km/h (0 Bft)
25.07.2014 22:46 18,1 C 16,7 C 90 % 1013,0 hPa 0,0 l/m 0 min 0 min 0,0 UV-I 0 W/m 6,3 km/h (2 Bft)
25.07.2014 22:48 18,1 C 16,7 C 90 % 1013,0 hPa 0,0 l/m 0 min 0 min 0,0 UV-I 0 W/m 10,5 km/h (2 Bft)
25.07.2014 22:50 18,1 C 16,7 C 90 % 1013,0 hPa 0,0 l/m 0 min 0 min 0,0 UV-I 0 W/m 4,2 km/h (1 Bft)
25.07.2014 22:52 18,0 C 16,7 C 91 % 1013,0 hPa 0,0 l/m 0 min 0 min 0,0 UV-I 0 W/m 2,1 km/h (1 Bft)
25.07.2014 22:54 18,0 C 16,7 C 91 % 1013,0 hPa 0,0 l/m 0 min 0 min 0,0 UV-I 0 W/m 0,0 km/h (0 Bft)
25.07.2014 22:56 17,9 C 16,7 C 91 % 1013,0 hPa 0,0 l/m 0 min 0 min 0,0 UV-I 0 W/m 6,3 km/h (2 Bft)
25.07.2014 22:58 17,9 C 16,7 C 91 % 1013,0 hPa 0,0 l/m 0 min 0 min 0,0 UV-I 0 W/m 0,0 km/h (0 Bft)
25.07.2014 23:00 17,8 C 16,7 C 91 % 1013,0 hPa 0,0 l/m 0 min 0 min 0,0 UV-I 0 W/m 2,1 km/h (1 Bft)
25.07.2014 23:02 17,8 C 16,7 C 91 % 1013,0 hPa 0,0 l/m 0 min 0 min 0,0 UV-I 0 W/m 8,4 km/h (2 Bft)
25.07.2014 23:04 17,8 C 16,7 C 91 % 1013,0 hPa 0,0 l/m 0 min 0 min 0,0 UV-I 0 W/m 6,3 km/h (2 Bft)
25.07.2014 23:06 17,8 C 16,7 C 91 % 1013,0 hPa 0,0 l/m 0 min 0 min 0,0 UV-I 0 W/m 6,3 km/h (2 Bft)
25.07.2014 23:08 17,8 C 16,7 C 91 % 1013,0 hPa 0,0 l/m 0 min 0 min 0,0 UV-I 0 W/m 2,1 km/h (1 Bft)
25.07.2014 23:10 17,7 C 16,7 C 91 % 1013,1 hPa 0,0 l/m 0 min 0 min 0,0 UV-I 0 W/m 8,4 km/h (2 Bft)
25.07.2014 23:12 17,7 C 16,7 C 92 % 1013,1 hPa 0,0 l/m 0 min 0 min 0,0 UV-I 0 W/m 0,0 km/h (0 Bft)
25.07.2014 23:14 17,7 C 16,7 C 92 % 1013,0 hPa 0,0 l/m 0 min 0 min 0,0 UV-I 0 W/m 2,1 km/h (1 Bft)
25.07.2014 23:16 17,7 C 16,7 C 92 % 1013,0 hPa 0,0 l/m 0 min 0 min 0,0 UV-I 0 W/m 0,0 km/h (0 Bft)
25.07.2014 23:18 17,7 C 16,7 C 92 % 1013,0 hPa 0,0 l/m 0 min 0 min 0,0 UV-I 0 W/m 0,0 km/h (0 Bft)
25.07.2014 23:20 17,7 C 16,7 C 92 % 1013,1 hPa 0,0 l/m 0 min 0 min 0,0 UV-I 0 W/m 8,4 km/h (2 Bft)
25.07.2014 23:22 17,7 C 16,7 C 92 % 1013,1 hPa 0,0 l/m 0 min 0 min 0,0 UV-I 0 W/m 0,0 km/h (0 Bft)
25.07.2014 23:24 17,6 C 16,7 C 92 % 1013,1 hPa 0,0 l/m 0 min 0 min 0,0 UV-I 0 W/m 0,0 km/h (0 Bft)
25.07.2014 23:26 17,6 C 16,7 C 92 % 1013,2 hPa 0,0 l/m 0 min 0 min 0,0 UV-I 0 W/m 0,0 km/h (0 Bft)
25.07.2014 23:28 17,6 C 16,7 C 92 % 1013,1 hPa 0,0 l/m 0 min 0 min 0,0 UV-I 0 W/m 0,0 km/h (0 Bft)
25.07.2014 23:30 17,6 C 16,7 C 92 % 1013,2 hPa 0,0 l/m 0 min 0 min 0,0 UV-I 0 W/m 0,0 km/h (0 Bft)
25.07.2014 23:32 17,6 C 16,7 C 92 % 1013,2 hPa 0,0 l/m 0 min 0 min 0,0 UV-I 0 W/m 0,0 km/h (0 Bft)
25.07.2014 23:34 17,6 C 16,7 C 92 % 1013,2 hPa 0,0 l/m 0 min 0 min 0,0 UV-I 0 W/m 6,3 km/h (2 Bft)
25.07.2014 23:36 17,6 C 16,7 C 92 % 1013,2 hPa 0,0 l/m 0 min 0 min 0,0 UV-I 0 W/m 0,0 km/h (0 Bft)
25.07.2014 23:38 17,5 C 16,1 C 92 % 1013,2 hPa 0,0 l/m 0 min 0 min 0,0 UV-I 0 W/m 2,1 km/h (1 Bft)
25.07.2014 23:40 17,5 C 16,1 C 92 % 1013,2 hPa 0,0 l/m 0 min 0 min 0,0 UV-I 0 W/m 2,1 km/h (1 Bft)
25.07.2014 23:42 17,5 C 16,1 C 92 % 1013,2 hPa 0,0 l/m 0 min 0 min 0,0 UV-I 0 W/m 8,4 km/h (2 Bft)
25.07.2014 23:44 17,5 C 16,1 C 92 % 1013,2 hPa 0,0 l/m 0 min 0 min 0,0 UV-I 0 W/m 8,4 km/h (2 Bft)
25.07.2014 23:46 17,4 C 16,1 C 92 % 1013,2 hPa 0,0 l/m 0 min 0 min 0,0 UV-I 0 W/m 6,3 km/h (2 Bft)
25.07.2014 23:48 17,4 C 16,1 C 92 % 1013,2 hPa 0,0 l/m 0 min 0 min 0,0 UV-I 0 W/m 2,1 km/h (1 Bft)
25.07.2014 23:50 17,4 C 16,1 C 93 % 1013,2 hPa 0,0 l/m 0 min 0 min 0,0 UV-I 0 W/m 0,0 km/h (0 Bft)
25.07.2014 23:52 17,3 C 16,1 C 93 % 1013,2 hPa 0,0 l/m 0 min 0 min 0,0 UV-I 0 W/m 0,0 km/h (0 Bft)
25.07.2014 23:54 17,3 C 16,1 C 93 % 1013,2 hPa 0,0 l/m 0 min 0 min 0,0 UV-I 0 W/m 6,3 km/h (2 Bft)
25.07.2014 23:56 17,3 C 16,1 C 93 % 1013,2 hPa 0,0 l/m 0 min 0 min 0,0 UV-I 0 W/m 0,0 km/h (0 Bft)
25.07.2014 23:58 17,3 C 16,1 C 93 % 1013,2 hPa 0,0 l/m 0 min 0 min 0,0 UV-I 0 W/m 2,1 km/h (1 Bft)
_ Min-Zeit 03:06 04:12 18:06 20:28 - - - - - 00:00
Minimum _ 15,9 C 13,9 C 76 % 1012,5 hPa - - - - - 0,0 km/h (0 Bft)
_ Max-Zeit 15:34 16:30 01:06 01:10 00:00 12:42 00:00 13:42 13:28 15:22
Maximum _ 21,9 C 26,1 C 94 % 1015,3 hPa 0,0 l/m 2 min 0 min 5,5 UV-I 1039 W/m 35,6 km/h
NO (5 Bft)
Durchschnitt _ 18,9 C 18,2 C 85 % 1014,0 hPa #0,0 l/m #7:14 h #0 min. 2,4 UV-I 299 W/m 11,2 km/h (2 Bft)
© 2014 W. Hausmann